<?xml version="1.0" encoding="UTF-8" standalone="no" ?>
<gpx xmlns="http://www.topografix.com/GPX/1/1" xmlns:xsi="http://www.w3.org/2001/XMLSchema-instance" xsi:schemaLocation="http://www.topografix.com/GPX/1/1 http://www.topografix.com/GPX/1/1/gpx.xsd" version="1.1" creator="VisuGPX - https://www.visugpx.com">
  <metadata>
    <name>croix de Chamrousse raquette snow</name>
    <desc><![CDATA[Trace AlpineQuest 17/11/2019 08:37:45]]></desc>
  </metadata>
  <trk>
    <name><![CDATA[croix de Chamrousse raquette snow]]></name>
    <trkseg>
      <trkpt lat="45.14096" lon="5.88863">
        <ele>1147.3120117188</ele>
        <time>2019-11-17T07:37:45Z</time>
      </trkpt>
      <trkpt lat="45.14063" lon="5.88859">
        <ele>1270.7120361328</ele>
        <time>2019-11-17T07:37:46Z</time>
      </trkpt>
      <trkpt lat="45.14044" lon="5.88839">
        <ele>1351.4119873047</ele>
        <time>2019-11-17T07:37:55Z</time>
      </trkpt>
      <trkpt lat="45.14044" lon="5.88828">
        <ele>1352.9119873047</ele>
        <time>2019-11-17T07:51:48Z</time>
      </trkpt>
      <trkpt lat="45.14048" lon="5.8882">
        <ele>1351.1120605469</ele>
        <time>2019-11-17T07:51:57Z</time>
      </trkpt>
      <trkpt lat="45.14054" lon="5.88812">
        <ele>1349.7120361328</ele>
        <time>2019-11-17T07:52:06Z</time>
      </trkpt>
      <trkpt lat="45.1406" lon="5.88805">
        <ele>1349.4119873047</ele>
        <time>2019-11-17T07:52:13Z</time>
      </trkpt>
      <trkpt lat="45.14065" lon="5.88798">
        <ele>1349.9119873047</ele>
        <time>2019-11-17T07:52:26Z</time>
      </trkpt>
      <trkpt lat="45.14063" lon="5.88788">
        <ele>1351.3120117188</ele>
        <time>2019-11-17T07:52:38Z</time>
      </trkpt>
      <trkpt lat="45.14056" lon="5.88787">
        <ele>1352.3120117188</ele>
        <time>2019-11-17T07:52:46Z</time>
      </trkpt>
      <trkpt lat="45.14049" lon="5.88783">
        <ele>1354.4119873047</ele>
        <time>2019-11-17T07:52:57Z</time>
      </trkpt>
      <trkpt lat="45.14043" lon="5.88778">
        <ele>1357.2120361328</ele>
        <time>2019-11-17T07:53:09Z</time>
      </trkpt>
      <trkpt lat="45.14035" lon="5.88778">
        <ele>1360.0119628906</ele>
        <time>2019-11-17T07:53:21Z</time>
      </trkpt>
      <trkpt lat="45.14028" lon="5.88776">
        <ele>1361.6120605469</ele>
        <time>2019-11-17T07:53:29Z</time>
      </trkpt>
      <trkpt lat="45.1402" lon="5.88774">
        <ele>1363.3120117188</ele>
        <time>2019-11-17T07:53:37Z</time>
      </trkpt>
      <trkpt lat="45.14013" lon="5.88774">
        <ele>1365.3120117188</ele>
        <time>2019-11-17T07:53:48Z</time>
      </trkpt>
      <trkpt lat="45.14006" lon="5.88777">
        <ele>1367.0119628906</ele>
        <time>2019-11-17T07:53:58Z</time>
      </trkpt>
      <trkpt lat="45.13999" lon="5.8878">
        <ele>1368.2120361328</ele>
        <time>2019-11-17T07:54:06Z</time>
      </trkpt>
      <trkpt lat="45.13992" lon="5.88784">
        <ele>1368.8120117188</ele>
        <time>2019-11-17T07:54:12Z</time>
      </trkpt>
      <trkpt lat="45.13985" lon="5.88788">
        <ele>1369.1120605469</ele>
        <time>2019-11-17T07:54:22Z</time>
      </trkpt>
      <trkpt lat="45.13978" lon="5.88792">
        <ele>1369.9119873047</ele>
        <time>2019-11-17T07:54:34Z</time>
      </trkpt>
      <trkpt lat="45.1397" lon="5.88794">
        <ele>1370.5119628906</ele>
        <time>2019-11-17T07:54:45Z</time>
      </trkpt>
      <trkpt lat="45.13963" lon="5.88796">
        <ele>1370.9119873047</ele>
        <time>2019-11-17T07:54:56Z</time>
      </trkpt>
      <trkpt lat="45.13955" lon="5.88793">
        <ele>1372.1120605469</ele>
        <time>2019-11-17T07:55:09Z</time>
      </trkpt>
      <trkpt lat="45.13948" lon="5.88795">
        <ele>1373.1120605469</ele>
        <time>2019-11-17T07:55:19Z</time>
      </trkpt>
      <trkpt lat="45.1394" lon="5.88794">
        <ele>1374.7120361328</ele>
        <time>2019-11-17T07:55:35Z</time>
      </trkpt>
      <trkpt lat="45.13932" lon="5.88796">
        <ele>1375.8120117188</ele>
        <time>2019-11-17T07:55:46Z</time>
      </trkpt>
      <trkpt lat="45.13925" lon="5.88797">
        <ele>1378.0119628906</ele>
        <time>2019-11-17T07:56:00Z</time>
      </trkpt>
      <trkpt lat="45.13917" lon="5.88794">
        <ele>1380.2120361328</ele>
        <time>2019-11-17T07:56:16Z</time>
      </trkpt>
      <trkpt lat="45.1391" lon="5.8879">
        <ele>1382.0119628906</ele>
        <time>2019-11-17T07:56:28Z</time>
      </trkpt>
      <trkpt lat="45.13902" lon="5.88791">
        <ele>1384.3120117188</ele>
        <time>2019-11-17T07:56:41Z</time>
      </trkpt>
      <trkpt lat="45.13895" lon="5.88795">
        <ele>1386.0119628906</ele>
        <time>2019-11-17T07:56:49Z</time>
      </trkpt>
      <trkpt lat="45.13888" lon="5.88795">
        <ele>1388.5119628906</ele>
        <time>2019-11-17T07:57:01Z</time>
      </trkpt>
      <trkpt lat="45.1388" lon="5.88795">
        <ele>1391.0119628906</ele>
        <time>2019-11-17T07:57:14Z</time>
      </trkpt>
      <trkpt lat="45.13873" lon="5.88798">
        <ele>1393.8120117188</ele>
        <time>2019-11-17T07:57:29Z</time>
      </trkpt>
      <trkpt lat="45.13867" lon="5.88793">
        <ele>1396.2120361328</ele>
        <time>2019-11-17T07:57:46Z</time>
      </trkpt>
      <trkpt lat="45.13859" lon="5.88791">
        <ele>1398.7120361328</ele>
        <time>2019-11-17T07:58:02Z</time>
      </trkpt>
      <trkpt lat="45.13852" lon="5.88796">
        <ele>1399.7120361328</ele>
        <time>2019-11-17T07:58:12Z</time>
      </trkpt>
      <trkpt lat="45.13845" lon="5.888">
        <ele>1400.2120361328</ele>
        <time>2019-11-17T07:58:23Z</time>
      </trkpt>
      <trkpt lat="45.13838" lon="5.88798">
        <ele>1401.7120361328</ele>
        <time>2019-11-17T07:58:38Z</time>
      </trkpt>
      <trkpt lat="45.13831" lon="5.88797">
        <ele>1403.6120605469</ele>
        <time>2019-11-17T07:58:51Z</time>
      </trkpt>
      <trkpt lat="45.13823" lon="5.88799">
        <ele>1405.1120605469</ele>
        <time>2019-11-17T07:59:00Z</time>
      </trkpt>
      <trkpt lat="45.13816" lon="5.88801">
        <ele>1406.4119873047</ele>
        <time>2019-11-17T07:59:14Z</time>
      </trkpt>
      <trkpt lat="45.13808" lon="5.88802">
        <ele>1407.2120361328</ele>
        <time>2019-11-17T07:59:27Z</time>
      </trkpt>
      <trkpt lat="45.13801" lon="5.88804">
        <ele>1409.8120117188</ele>
        <time>2019-11-17T07:59:48Z</time>
      </trkpt>
      <trkpt lat="45.13794" lon="5.88804">
        <ele>1412.2120361328</ele>
        <time>2019-11-17T08:00:01Z</time>
      </trkpt>
      <trkpt lat="45.13786" lon="5.88805">
        <ele>1414.3120117188</ele>
        <time>2019-11-17T08:00:14Z</time>
      </trkpt>
      <trkpt lat="45.13779" lon="5.88802">
        <ele>1418.3120117188</ele>
        <time>2019-11-17T08:00:32Z</time>
      </trkpt>
      <trkpt lat="45.13772" lon="5.88805">
        <ele>1421.3120117188</ele>
        <time>2019-11-17T08:00:45Z</time>
      </trkpt>
      <trkpt lat="45.13765" lon="5.88805">
        <ele>1425.8120117188</ele>
        <time>2019-11-17T08:01:07Z</time>
      </trkpt>
      <trkpt lat="45.13757" lon="5.88808">
        <ele>1427.9110107422</ele>
        <time>2019-11-17T08:01:20Z</time>
      </trkpt>
      <trkpt lat="45.1375" lon="5.88804">
        <ele>1431.1109619141</ele>
        <time>2019-11-17T08:01:44Z</time>
      </trkpt>
      <trkpt lat="45.13741" lon="5.88808">
        <ele>1432.4110107422</ele>
        <time>2019-11-17T08:01:58Z</time>
      </trkpt>
      <trkpt lat="45.13734" lon="5.88807">
        <ele>1435.2110595703</ele>
        <time>2019-11-17T08:02:16Z</time>
      </trkpt>
      <trkpt lat="45.13726" lon="5.88806">
        <ele>1437.6109619141</ele>
        <time>2019-11-17T08:02:34Z</time>
      </trkpt>
      <trkpt lat="45.13719" lon="5.88805">
        <ele>1440.5109863281</ele>
        <time>2019-11-17T08:02:51Z</time>
      </trkpt>
      <trkpt lat="45.13712" lon="5.88805">
        <ele>1443.4110107422</ele>
        <time>2019-11-17T08:03:06Z</time>
      </trkpt>
      <trkpt lat="45.13704" lon="5.88803">
        <ele>1445.6109619141</ele>
        <time>2019-11-17T08:03:21Z</time>
      </trkpt>
      <trkpt lat="45.13697" lon="5.88807">
        <ele>1446.3110351562</ele>
        <time>2019-11-17T08:05:09Z</time>
      </trkpt>
      <trkpt lat="45.1369" lon="5.88805">
        <ele>1446.9110107422</ele>
        <time>2019-11-17T08:05:23Z</time>
      </trkpt>
      <trkpt lat="45.13683" lon="5.88801">
        <ele>1447.7110595703</ele>
        <time>2019-11-17T08:05:34Z</time>
      </trkpt>
      <trkpt lat="45.13675" lon="5.88799">
        <ele>1449.4110107422</ele>
        <time>2019-11-17T08:05:47Z</time>
      </trkpt>
      <trkpt lat="45.13668" lon="5.88801">
        <ele>1450.7110595703</ele>
        <time>2019-11-17T08:05:58Z</time>
      </trkpt>
      <trkpt lat="45.1366" lon="5.88799">
        <ele>1452.5109863281</ele>
        <time>2019-11-17T08:06:10Z</time>
      </trkpt>
      <trkpt lat="45.13653" lon="5.88799">
        <ele>1454.2110595703</ele>
        <time>2019-11-17T08:06:22Z</time>
      </trkpt>
      <trkpt lat="45.13646" lon="5.88795">
        <ele>1456.5109863281</ele>
        <time>2019-11-17T08:06:35Z</time>
      </trkpt>
      <trkpt lat="45.13638" lon="5.88794">
        <ele>1458.7110595703</ele>
        <time>2019-11-17T08:06:47Z</time>
      </trkpt>
      <trkpt lat="45.1363" lon="5.88792">
        <ele>1460.9110107422</ele>
        <time>2019-11-17T08:06:59Z</time>
      </trkpt>
      <trkpt lat="45.13622" lon="5.88788">
        <ele>1463.3110351562</ele>
        <time>2019-11-17T08:07:13Z</time>
      </trkpt>
      <trkpt lat="45.13614" lon="5.88788">
        <ele>1466.0109863281</ele>
        <time>2019-11-17T08:07:26Z</time>
      </trkpt>
      <trkpt lat="45.13607" lon="5.88785">
        <ele>1468.1109619141</ele>
        <time>2019-11-17T08:07:39Z</time>
      </trkpt>
      <trkpt lat="45.136" lon="5.88787">
        <ele>1470.2110595703</ele>
        <time>2019-11-17T08:07:50Z</time>
      </trkpt>
      <trkpt lat="45.13592" lon="5.88784">
        <ele>1472.7110595703</ele>
        <time>2019-11-17T08:08:03Z</time>
      </trkpt>
      <trkpt lat="45.13585" lon="5.88781">
        <ele>1474.9110107422</ele>
        <time>2019-11-17T08:08:16Z</time>
      </trkpt>
      <trkpt lat="45.13578" lon="5.88784">
        <ele>1477.4110107422</ele>
        <time>2019-11-17T08:08:28Z</time>
      </trkpt>
      <trkpt lat="45.1357" lon="5.88786">
        <ele>1478.2110595703</ele>
        <time>2019-11-17T08:08:36Z</time>
      </trkpt>
      <trkpt lat="45.13562" lon="5.88784">
        <ele>1479.5109863281</ele>
        <time>2019-11-17T08:08:49Z</time>
      </trkpt>
      <trkpt lat="45.13555" lon="5.88788">
        <ele>1481.3110351562</ele>
        <time>2019-11-17T08:09:03Z</time>
      </trkpt>
      <trkpt lat="45.13547" lon="5.88787">
        <ele>1483.9110107422</ele>
        <time>2019-11-17T08:09:20Z</time>
      </trkpt>
      <trkpt lat="45.1354" lon="5.88786">
        <ele>1484.9110107422</ele>
        <time>2019-11-17T08:09:30Z</time>
      </trkpt>
      <trkpt lat="45.13532" lon="5.88787">
        <ele>1485.7110595703</ele>
        <time>2019-11-17T08:09:38Z</time>
      </trkpt>
      <trkpt lat="45.13525" lon="5.88788">
        <ele>1487.2110595703</ele>
        <time>2019-11-17T08:09:50Z</time>
      </trkpt>
      <trkpt lat="45.13518" lon="5.88794">
        <ele>1488.2110595703</ele>
        <time>2019-11-17T08:09:57Z</time>
      </trkpt>
      <trkpt lat="45.13512" lon="5.88789">
        <ele>1489.0109863281</ele>
        <time>2019-11-17T08:10:08Z</time>
      </trkpt>
      <trkpt lat="45.13504" lon="5.88788">
        <ele>1490.0109863281</ele>
        <time>2019-11-17T08:10:17Z</time>
      </trkpt>
      <trkpt lat="45.13496" lon="5.88789">
        <ele>1491.1109619141</ele>
        <time>2019-11-17T08:10:28Z</time>
      </trkpt>
      <trkpt lat="45.13488" lon="5.88789">
        <ele>1492.4110107422</ele>
        <time>2019-11-17T08:10:39Z</time>
      </trkpt>
      <trkpt lat="45.13481" lon="5.88787">
        <ele>1493.5109863281</ele>
        <time>2019-11-17T08:10:52Z</time>
      </trkpt>
      <trkpt lat="45.13474" lon="5.88783">
        <ele>1495.4110107422</ele>
        <time>2019-11-17T08:11:07Z</time>
      </trkpt>
      <trkpt lat="45.13467" lon="5.88783">
        <ele>1496.5109863281</ele>
        <time>2019-11-17T08:11:14Z</time>
      </trkpt>
      <trkpt lat="45.13459" lon="5.88781">
        <ele>1498.8110351562</ele>
        <time>2019-11-17T08:11:30Z</time>
      </trkpt>
      <trkpt lat="45.13451" lon="5.88781">
        <ele>1500.8110351562</ele>
        <time>2019-11-17T08:11:43Z</time>
      </trkpt>
      <trkpt lat="45.13444" lon="5.88782">
        <ele>1502.3110351562</ele>
        <time>2019-11-17T08:11:52Z</time>
      </trkpt>
      <trkpt lat="45.13437" lon="5.88777">
        <ele>1505.5109863281</ele>
        <time>2019-11-17T08:12:12Z</time>
      </trkpt>
      <trkpt lat="45.13429" lon="5.88779">
        <ele>1506.9110107422</ele>
        <time>2019-11-17T08:12:20Z</time>
      </trkpt>
      <trkpt lat="45.13422" lon="5.88777">
        <ele>1509.4110107422</ele>
        <time>2019-11-17T08:12:40Z</time>
      </trkpt>
      <trkpt lat="45.13414" lon="5.88774">
        <ele>1511.3110351562</ele>
        <time>2019-11-17T08:13:01Z</time>
      </trkpt>
      <trkpt lat="45.13407" lon="5.88774">
        <ele>1514.4110107422</ele>
        <time>2019-11-17T08:13:20Z</time>
      </trkpt>
      <trkpt lat="45.134" lon="5.88769">
        <ele>1518.1109619141</ele>
        <time>2019-11-17T08:13:41Z</time>
      </trkpt>
      <trkpt lat="45.13392" lon="5.8877">
        <ele>1521.0109863281</ele>
        <time>2019-11-17T08:13:59Z</time>
      </trkpt>
      <trkpt lat="45.13385" lon="5.88772">
        <ele>1523.7110595703</ele>
        <time>2019-11-17T08:14:13Z</time>
      </trkpt>
      <trkpt lat="45.13377" lon="5.88771">
        <ele>1527.5109863281</ele>
        <time>2019-11-17T08:14:32Z</time>
      </trkpt>
      <trkpt lat="45.13368" lon="5.88774">
        <ele>1531.0109863281</ele>
        <time>2019-11-17T08:14:50Z</time>
      </trkpt>
      <trkpt lat="45.13361" lon="5.88776">
        <ele>1533.9110107422</ele>
        <time>2019-11-17T08:15:15Z</time>
      </trkpt>
      <trkpt lat="45.13354" lon="5.8878">
        <ele>1535.9110107422</ele>
        <time>2019-11-17T08:15:26Z</time>
      </trkpt>
      <trkpt lat="45.13346" lon="5.88782">
        <ele>1538.9110107422</ele>
        <time>2019-11-17T08:15:43Z</time>
      </trkpt>
      <trkpt lat="45.13339" lon="5.88784">
        <ele>1541.5109863281</ele>
        <time>2019-11-17T08:15:58Z</time>
      </trkpt>
      <trkpt lat="45.13332" lon="5.88788">
        <ele>1544.9110107422</ele>
        <time>2019-11-17T08:16:17Z</time>
      </trkpt>
      <trkpt lat="45.13326" lon="5.88796">
        <ele>1547.9110107422</ele>
        <time>2019-11-17T08:16:33Z</time>
      </trkpt>
      <trkpt lat="45.13324" lon="5.88806">
        <ele>1551.0109863281</ele>
        <time>2019-11-17T08:16:53Z</time>
      </trkpt>
      <trkpt lat="45.13322" lon="5.88816">
        <ele>1552.9110107422</ele>
        <time>2019-11-17T08:17:08Z</time>
      </trkpt>
      <trkpt lat="45.13318" lon="5.88824">
        <ele>1554.2110595703</ele>
        <time>2019-11-17T08:17:19Z</time>
      </trkpt>
      <trkpt lat="45.13315" lon="5.88834">
        <ele>1556.9110107422</ele>
        <time>2019-11-17T08:17:36Z</time>
      </trkpt>
      <trkpt lat="45.13314" lon="5.88845">
        <ele>1559.4110107422</ele>
        <time>2019-11-17T08:17:51Z</time>
      </trkpt>
      <trkpt lat="45.13312" lon="5.88855">
        <ele>1561.2110595703</ele>
        <time>2019-11-17T08:18:03Z</time>
      </trkpt>
      <trkpt lat="45.13311" lon="5.88866">
        <ele>1562.8110351562</ele>
        <time>2019-11-17T08:18:16Z</time>
      </trkpt>
      <trkpt lat="45.13312" lon="5.88876">
        <ele>1564.4110107422</ele>
        <time>2019-11-17T08:18:27Z</time>
      </trkpt>
      <trkpt lat="45.13311" lon="5.88886">
        <ele>1567.0109863281</ele>
        <time>2019-11-17T08:18:41Z</time>
      </trkpt>
      <trkpt lat="45.13315" lon="5.88895">
        <ele>1568.7110595703</ele>
        <time>2019-11-17T08:18:51Z</time>
      </trkpt>
      <trkpt lat="45.13314" lon="5.88906">
        <ele>1570.3110351562</ele>
        <time>2019-11-17T08:19:07Z</time>
      </trkpt>
      <trkpt lat="45.13314" lon="5.88916">
        <ele>1571.6109619141</ele>
        <time>2019-11-17T08:19:20Z</time>
      </trkpt>
      <trkpt lat="45.13316" lon="5.88926">
        <ele>1572.9110107422</ele>
        <time>2019-11-17T08:19:30Z</time>
      </trkpt>
      <trkpt lat="45.13319" lon="5.88936">
        <ele>1574.6109619141</ele>
        <time>2019-11-17T08:19:46Z</time>
      </trkpt>
      <trkpt lat="45.1332" lon="5.88947">
        <ele>1576.8110351562</ele>
        <time>2019-11-17T08:20:03Z</time>
      </trkpt>
      <trkpt lat="45.1332" lon="5.88957">
        <ele>1578.8110351562</ele>
        <time>2019-11-17T08:20:20Z</time>
      </trkpt>
      <trkpt lat="45.13321" lon="5.88968">
        <ele>1581.9110107422</ele>
        <time>2019-11-17T08:20:36Z</time>
      </trkpt>
      <trkpt lat="45.13321" lon="5.88979">
        <ele>1583.2110595703</ele>
        <time>2019-11-17T08:20:50Z</time>
      </trkpt>
      <trkpt lat="45.13317" lon="5.88987">
        <ele>1585.9110107422</ele>
        <time>2019-11-17T08:21:08Z</time>
      </trkpt>
      <trkpt lat="45.13319" lon="5.88997">
        <ele>1589.8110351562</ele>
        <time>2019-11-17T08:21:21Z</time>
      </trkpt>
      <trkpt lat="45.13325" lon="5.89003">
        <ele>1593.6109619141</ele>
        <time>2019-11-17T08:21:26Z</time>
      </trkpt>
      <trkpt lat="45.13326" lon="5.89014">
        <ele>1598.9110107422</ele>
        <time>2019-11-17T08:21:44Z</time>
      </trkpt>
      <trkpt lat="45.13316" lon="5.89015">
        <ele>1601.3110351562</ele>
        <time>2019-11-17T08:22:04Z</time>
      </trkpt>
      <trkpt lat="45.13309" lon="5.89014">
        <ele>1602.2110595703</ele>
        <time>2019-11-17T08:22:14Z</time>
      </trkpt>
      <trkpt lat="45.13302" lon="5.89018">
        <ele>1602.8110351562</ele>
        <time>2019-11-17T08:22:23Z</time>
      </trkpt>
      <trkpt lat="45.13296" lon="5.89026">
        <ele>1603.4110107422</ele>
        <time>2019-11-17T08:22:32Z</time>
      </trkpt>
      <trkpt lat="45.13292" lon="5.89034">
        <ele>1605.2110595703</ele>
        <time>2019-11-17T08:22:44Z</time>
      </trkpt>
      <trkpt lat="45.13284" lon="5.89032">
        <ele>1606.9110107422</ele>
        <time>2019-11-17T08:22:55Z</time>
      </trkpt>
      <trkpt lat="45.1328" lon="5.89023">
        <ele>1608.3110351562</ele>
        <time>2019-11-17T08:23:09Z</time>
      </trkpt>
      <trkpt lat="45.13274" lon="5.89016">
        <ele>1608.2110595703</ele>
        <time>2019-11-17T08:23:32Z</time>
      </trkpt>
      <trkpt lat="45.13268" lon="5.8901">
        <ele>1615.6109619141</ele>
        <time>2019-11-17T08:24:01Z</time>
      </trkpt>
      <trkpt lat="45.13269" lon="5.89">
        <ele>1618.8110351562</ele>
        <time>2019-11-17T08:24:13Z</time>
      </trkpt>
      <trkpt lat="45.13263" lon="5.88994">
        <ele>1621.8110351562</ele>
        <time>2019-11-17T08:24:29Z</time>
      </trkpt>
      <trkpt lat="45.13255" lon="5.88989">
        <ele>1623.6109619141</ele>
        <time>2019-11-17T08:24:41Z</time>
      </trkpt>
      <trkpt lat="45.13248" lon="5.88985">
        <ele>1623.8110351562</ele>
        <time>2019-11-17T08:24:50Z</time>
      </trkpt>
      <trkpt lat="45.13241" lon="5.8898">
        <ele>1624.5109863281</ele>
        <time>2019-11-17T08:24:58Z</time>
      </trkpt>
      <trkpt lat="45.13236" lon="5.88973">
        <ele>1627.5109863281</ele>
        <time>2019-11-17T08:26:36Z</time>
      </trkpt>
      <trkpt lat="45.13234" lon="5.88963">
        <ele>1631.0109863281</ele>
        <time>2019-11-17T08:26:51Z</time>
      </trkpt>
      <trkpt lat="45.13229" lon="5.88953">
        <ele>1633.4110107422</ele>
        <time>2019-11-17T08:27:06Z</time>
      </trkpt>
      <trkpt lat="45.13225" lon="5.88944">
        <ele>1635.0109863281</ele>
        <time>2019-11-17T08:27:16Z</time>
      </trkpt>
      <trkpt lat="45.13219" lon="5.88938">
        <ele>1636.4110107422</ele>
        <time>2019-11-17T08:27:25Z</time>
      </trkpt>
      <trkpt lat="45.13212" lon="5.88931">
        <ele>1637.0109863281</ele>
        <time>2019-11-17T08:27:36Z</time>
      </trkpt>
      <trkpt lat="45.13205" lon="5.88926">
        <ele>1637.4110107422</ele>
        <time>2019-11-17T08:27:47Z</time>
      </trkpt>
      <trkpt lat="45.13199" lon="5.88919">
        <ele>1637.6109619141</ele>
        <time>2019-11-17T08:27:52Z</time>
      </trkpt>
      <trkpt lat="45.13193" lon="5.88915">
        <ele>1637.7099609375</ele>
        <time>2019-11-17T08:28:04Z</time>
      </trkpt>
      <trkpt lat="45.13187" lon="5.88906">
        <ele>1637.1099853516</ele>
        <time>2019-11-17T08:28:14Z</time>
      </trkpt>
      <trkpt lat="45.13181" lon="5.889">
        <ele>1636.0100097656</ele>
        <time>2019-11-17T08:28:29Z</time>
      </trkpt>
      <trkpt lat="45.13176" lon="5.88891">
        <ele>1635.6099853516</ele>
        <time>2019-11-17T08:28:41Z</time>
      </trkpt>
      <trkpt lat="45.13167" lon="5.88874">
        <ele>1637.6099853516</ele>
        <time>2019-11-17T08:28:53Z</time>
      </trkpt>
      <trkpt lat="45.13161" lon="5.88868">
        <ele>1641.1099853516</ele>
        <time>2019-11-17T08:29:04Z</time>
      </trkpt>
      <trkpt lat="45.13153" lon="5.88868">
        <ele>1643.4100341797</ele>
        <time>2019-11-17T08:29:18Z</time>
      </trkpt>
      <trkpt lat="45.13145" lon="5.88867">
        <ele>1645.9100341797</ele>
        <time>2019-11-17T08:29:33Z</time>
      </trkpt>
      <trkpt lat="45.13137" lon="5.88867">
        <ele>1648.9100341797</ele>
        <time>2019-11-17T08:29:49Z</time>
      </trkpt>
      <trkpt lat="45.1313" lon="5.88868">
        <ele>1652.3100585938</ele>
        <time>2019-11-17T08:30:03Z</time>
      </trkpt>
      <trkpt lat="45.13123" lon="5.88867">
        <ele>1655.4100341797</ele>
        <time>2019-11-17T08:30:18Z</time>
      </trkpt>
      <trkpt lat="45.13115" lon="5.88868">
        <ele>1658.6099853516</ele>
        <time>2019-11-17T08:30:33Z</time>
      </trkpt>
      <trkpt lat="45.13108" lon="5.8887">
        <ele>1660.1099853516</ele>
        <time>2019-11-17T08:30:45Z</time>
      </trkpt>
      <trkpt lat="45.131" lon="5.8887">
        <ele>1662.2099609375</ele>
        <time>2019-11-17T08:31:06Z</time>
      </trkpt>
      <trkpt lat="45.13093" lon="5.88873">
        <ele>1662.4100341797</ele>
        <time>2019-11-17T08:31:17Z</time>
      </trkpt>
      <trkpt lat="45.13086" lon="5.88875">
        <ele>1663.0100097656</ele>
        <time>2019-11-17T08:31:29Z</time>
      </trkpt>
      <trkpt lat="45.13078" lon="5.88877">
        <ele>1664.4100341797</ele>
        <time>2019-11-17T08:31:45Z</time>
      </trkpt>
      <trkpt lat="45.13071" lon="5.88879">
        <ele>1667.5100097656</ele>
        <time>2019-11-17T08:31:59Z</time>
      </trkpt>
      <trkpt lat="45.13064" lon="5.8888">
        <ele>1670.1099853516</ele>
        <time>2019-11-17T08:32:14Z</time>
      </trkpt>
      <trkpt lat="45.13056" lon="5.8888">
        <ele>1670.7099609375</ele>
        <time>2019-11-17T08:32:32Z</time>
      </trkpt>
      <trkpt lat="45.13049" lon="5.88881">
        <ele>1673.0100097656</ele>
        <time>2019-11-17T08:32:49Z</time>
      </trkpt>
      <trkpt lat="45.13042" lon="5.88878">
        <ele>1676.0100097656</ele>
        <time>2019-11-17T08:33:06Z</time>
      </trkpt>
      <trkpt lat="45.13035" lon="5.88873">
        <ele>1676.4100341797</ele>
        <time>2019-11-17T08:33:24Z</time>
      </trkpt>
      <trkpt lat="45.13029" lon="5.88868">
        <ele>1678.4100341797</ele>
        <time>2019-11-17T08:33:35Z</time>
      </trkpt>
      <trkpt lat="45.13022" lon="5.88864">
        <ele>1679.4100341797</ele>
        <time>2019-11-17T08:33:46Z</time>
      </trkpt>
      <trkpt lat="45.13016" lon="5.88859">
        <ele>1680.2099609375</ele>
        <time>2019-11-17T08:33:59Z</time>
      </trkpt>
      <trkpt lat="45.13009" lon="5.88855">
        <ele>1681.1099853516</ele>
        <time>2019-11-17T08:34:10Z</time>
      </trkpt>
      <trkpt lat="45.13001" lon="5.88855">
        <ele>1682.6099853516</ele>
        <time>2019-11-17T08:34:24Z</time>
      </trkpt>
      <trkpt lat="45.12993" lon="5.88853">
        <ele>1684.9100341797</ele>
        <time>2019-11-17T08:34:35Z</time>
      </trkpt>
      <trkpt lat="45.12987" lon="5.8885">
        <ele>1686.1099853516</ele>
        <time>2019-11-17T08:34:51Z</time>
      </trkpt>
      <trkpt lat="45.12979" lon="5.88849">
        <ele>1686.5100097656</ele>
        <time>2019-11-17T08:35:02Z</time>
      </trkpt>
      <trkpt lat="45.12971" lon="5.88849">
        <ele>1687.9100341797</ele>
        <time>2019-11-17T08:35:19Z</time>
      </trkpt>
      <trkpt lat="45.12964" lon="5.88853">
        <ele>1690.1099853516</ele>
        <time>2019-11-17T08:35:31Z</time>
      </trkpt>
      <trkpt lat="45.12957" lon="5.88859">
        <ele>1690.5100097656</ele>
        <time>2019-11-17T08:35:42Z</time>
      </trkpt>
      <trkpt lat="45.1295" lon="5.88864">
        <ele>1692.8100585938</ele>
        <time>2019-11-17T08:37:05Z</time>
      </trkpt>
      <trkpt lat="45.12942" lon="5.88864">
        <ele>1693.5100097656</ele>
        <time>2019-11-17T08:37:17Z</time>
      </trkpt>
      <trkpt lat="45.12935" lon="5.88864">
        <ele>1696.2099609375</ele>
        <time>2019-11-17T08:37:32Z</time>
      </trkpt>
      <trkpt lat="45.12928" lon="5.88867">
        <ele>1697.8100585938</ele>
        <time>2019-11-17T08:37:44Z</time>
      </trkpt>
      <trkpt lat="45.1292" lon="5.88866">
        <ele>1699.8100585938</ele>
        <time>2019-11-17T08:38:00Z</time>
      </trkpt>
      <trkpt lat="45.12913" lon="5.88864">
        <ele>1702.4100341797</ele>
        <time>2019-11-17T08:38:17Z</time>
      </trkpt>
      <trkpt lat="45.12906" lon="5.88867">
        <ele>1704.6099853516</ele>
        <time>2019-11-17T08:38:31Z</time>
      </trkpt>
      <trkpt lat="45.12899" lon="5.88868">
        <ele>1706.9100341797</ele>
        <time>2019-11-17T08:38:45Z</time>
      </trkpt>
      <trkpt lat="45.12891" lon="5.88867">
        <ele>1710.9100341797</ele>
        <time>2019-11-17T08:39:04Z</time>
      </trkpt>
      <trkpt lat="45.12885" lon="5.88874">
        <ele>1712.0100097656</ele>
        <time>2019-11-17T08:39:14Z</time>
      </trkpt>
      <trkpt lat="45.12879" lon="5.88878">
        <ele>1711.9100341797</ele>
        <time>2019-11-17T08:39:26Z</time>
      </trkpt>
      <trkpt lat="45.12871" lon="5.88879">
        <ele>1712.7099609375</ele>
        <time>2019-11-17T08:39:41Z</time>
      </trkpt>
      <trkpt lat="45.12864" lon="5.88881">
        <ele>1716.4100341797</ele>
        <time>2019-11-17T08:40:02Z</time>
      </trkpt>
      <trkpt lat="45.12856" lon="5.88882">
        <ele>1720.4100341797</ele>
        <time>2019-11-17T08:40:15Z</time>
      </trkpt>
      <trkpt lat="45.12849" lon="5.88881">
        <ele>1723.9100341797</ele>
        <time>2019-11-17T08:40:34Z</time>
      </trkpt>
      <trkpt lat="45.12841" lon="5.88882">
        <ele>1725.6099853516</ele>
        <time>2019-11-17T08:40:47Z</time>
      </trkpt>
      <trkpt lat="45.12836" lon="5.8889">
        <ele>1727.2099609375</ele>
        <time>2019-11-17T08:41:01Z</time>
      </trkpt>
      <trkpt lat="45.12829" lon="5.88889">
        <ele>1730.3100585938</ele>
        <time>2019-11-17T08:41:20Z</time>
      </trkpt>
      <trkpt lat="45.12822" lon="5.88893">
        <ele>1732.6099853516</ele>
        <time>2019-11-17T08:41:31Z</time>
      </trkpt>
      <trkpt lat="45.12814" lon="5.88895">
        <ele>1735.6099853516</ele>
        <time>2019-11-17T08:41:50Z</time>
      </trkpt>
      <trkpt lat="45.12808" lon="5.88901">
        <ele>1738.2099609375</ele>
        <time>2019-11-17T08:42:03Z</time>
      </trkpt>
      <trkpt lat="45.128" lon="5.88903">
        <ele>1740.1099853516</ele>
        <time>2019-11-17T08:42:21Z</time>
      </trkpt>
      <trkpt lat="45.12793" lon="5.88905">
        <ele>1743.2099609375</ele>
        <time>2019-11-17T08:42:38Z</time>
      </trkpt>
      <trkpt lat="45.12786" lon="5.88906">
        <ele>1745.8100585938</ele>
        <time>2019-11-17T08:42:54Z</time>
      </trkpt>
      <trkpt lat="45.12779" lon="5.88911">
        <ele>1749.6099853516</ele>
        <time>2019-11-17T08:43:09Z</time>
      </trkpt>
      <trkpt lat="45.12772" lon="5.88916">
        <ele>1753.0100097656</ele>
        <time>2019-11-17T08:43:22Z</time>
      </trkpt>
      <trkpt lat="45.12765" lon="5.8892">
        <ele>1756.4100341797</ele>
        <time>2019-11-17T08:43:35Z</time>
      </trkpt>
      <trkpt lat="45.12758" lon="5.88923">
        <ele>1756.7099609375</ele>
        <time>2019-11-17T08:43:46Z</time>
      </trkpt>
      <trkpt lat="45.12751" lon="5.88922">
        <ele>1759.3100585938</ele>
        <time>2019-11-17T08:44:05Z</time>
      </trkpt>
      <trkpt lat="45.12744" lon="5.88928">
        <ele>1762.3100585938</ele>
        <time>2019-11-17T08:44:21Z</time>
      </trkpt>
      <trkpt lat="45.12738" lon="5.88934">
        <ele>1763.5100097656</ele>
        <time>2019-11-17T08:44:33Z</time>
      </trkpt>
      <trkpt lat="45.12731" lon="5.88939">
        <ele>1765.7099609375</ele>
        <time>2019-11-17T08:44:47Z</time>
      </trkpt>
      <trkpt lat="45.12725" lon="5.88945">
        <ele>1766.7099609375</ele>
        <time>2019-11-17T08:45:02Z</time>
      </trkpt>
      <trkpt lat="45.12717" lon="5.88954">
        <ele>1770.6099853516</ele>
        <time>2019-11-17T08:45:33Z</time>
      </trkpt>
      <trkpt lat="45.12712" lon="5.88962">
        <ele>1774.0100097656</ele>
        <time>2019-11-17T08:48:04Z</time>
      </trkpt>
      <trkpt lat="45.12705" lon="5.88966">
        <ele>1768.6099853516</ele>
        <time>2019-11-17T08:48:15Z</time>
      </trkpt>
      <trkpt lat="45.127" lon="5.88974">
        <ele>1765.2099609375</ele>
        <time>2019-11-17T08:48:25Z</time>
      </trkpt>
      <trkpt lat="45.12693" lon="5.88977">
        <ele>1763.0100097656</ele>
        <time>2019-11-17T08:48:36Z</time>
      </trkpt>
      <trkpt lat="45.12685" lon="5.88978">
        <ele>1763.3100585938</ele>
        <time>2019-11-17T08:48:45Z</time>
      </trkpt>
      <trkpt lat="45.12677" lon="5.88977">
        <ele>1766.1099853516</ele>
        <time>2019-11-17T08:49:02Z</time>
      </trkpt>
      <trkpt lat="45.12668" lon="5.88979">
        <ele>1766.3100585938</ele>
        <time>2019-11-17T08:49:12Z</time>
      </trkpt>
      <trkpt lat="45.12662" lon="5.88974">
        <ele>1772.6090087891</ele>
        <time>2019-11-17T08:50:36Z</time>
      </trkpt>
      <trkpt lat="45.12654" lon="5.88973">
        <ele>1772.0090332031</ele>
        <time>2019-11-17T08:50:45Z</time>
      </trkpt>
      <trkpt lat="45.12647" lon="5.88973">
        <ele>1774.1090087891</ele>
        <time>2019-11-17T08:50:59Z</time>
      </trkpt>
      <trkpt lat="45.12641" lon="5.88983">
        <ele>1777.0090332031</ele>
        <time>2019-11-17T08:51:30Z</time>
      </trkpt>
      <trkpt lat="45.12641" lon="5.88994">
        <ele>1776.1090087891</ele>
        <time>2019-11-17T08:51:48Z</time>
      </trkpt>
      <trkpt lat="45.12638" lon="5.89003">
        <ele>1776.208984375</ele>
        <time>2019-11-17T08:52:03Z</time>
      </trkpt>
      <trkpt lat="45.12642" lon="5.89012">
        <ele>1779.4090576172</ele>
        <time>2019-11-17T08:52:14Z</time>
      </trkpt>
      <trkpt lat="45.12636" lon="5.89018">
        <ele>1783.1090087891</ele>
        <time>2019-11-17T08:52:25Z</time>
      </trkpt>
      <trkpt lat="45.12628" lon="5.8902">
        <ele>1784.6090087891</ele>
        <time>2019-11-17T08:52:50Z</time>
      </trkpt>
      <trkpt lat="45.12624" lon="5.8903">
        <ele>1782.0090332031</ele>
        <time>2019-11-17T08:53:08Z</time>
      </trkpt>
      <trkpt lat="45.12631" lon="5.89035">
        <ele>1785.4100341797</ele>
        <time>2019-11-17T08:53:20Z</time>
      </trkpt>
      <trkpt lat="45.1263" lon="5.89045">
        <ele>1789.4100341797</ele>
        <time>2019-11-17T08:53:41Z</time>
      </trkpt>
      <trkpt lat="45.12626" lon="5.89056">
        <ele>1788.2099609375</ele>
        <time>2019-11-17T08:54:11Z</time>
      </trkpt>
      <trkpt lat="45.12619" lon="5.89066">
        <ele>1789.7099609375</ele>
        <time>2019-11-17T08:54:39Z</time>
      </trkpt>
      <trkpt lat="45.12614" lon="5.89079">
        <ele>1796.7099609375</ele>
        <time>2019-11-17T08:55:14Z</time>
      </trkpt>
      <trkpt lat="45.12612" lon="5.89089">
        <ele>1795.2099609375</ele>
        <time>2019-11-17T08:55:25Z</time>
      </trkpt>
      <trkpt lat="45.12611" lon="5.891">
        <ele>1794.6099853516</ele>
        <time>2019-11-17T08:55:37Z</time>
      </trkpt>
      <trkpt lat="45.12606" lon="5.89108">
        <ele>1795.0100097656</ele>
        <time>2019-11-17T08:55:54Z</time>
      </trkpt>
      <trkpt lat="45.12603" lon="5.89118">
        <ele>1796.4100341797</ele>
        <time>2019-11-17T08:56:03Z</time>
      </trkpt>
      <trkpt lat="45.126" lon="5.89128">
        <ele>1798.0100097656</ele>
        <time>2019-11-17T08:56:12Z</time>
      </trkpt>
      <trkpt lat="45.12597" lon="5.89138">
        <ele>1799.5100097656</ele>
        <time>2019-11-17T08:56:25Z</time>
      </trkpt>
      <trkpt lat="45.12594" lon="5.89147">
        <ele>1800.6099853516</ele>
        <time>2019-11-17T08:56:41Z</time>
      </trkpt>
      <trkpt lat="45.12589" lon="5.89156">
        <ele>1801.0100097656</ele>
        <time>2019-11-17T08:56:59Z</time>
      </trkpt>
      <trkpt lat="45.12587" lon="5.89166">
        <ele>1801.9100341797</ele>
        <time>2019-11-17T08:57:19Z</time>
      </trkpt>
      <trkpt lat="45.12587" lon="5.89177">
        <ele>1803.9100341797</ele>
        <time>2019-11-17T08:57:35Z</time>
      </trkpt>
      <trkpt lat="45.12584" lon="5.89187">
        <ele>1806.9100341797</ele>
        <time>2019-11-17T08:57:49Z</time>
      </trkpt>
      <trkpt lat="45.1258" lon="5.89195">
        <ele>1810.7099609375</ele>
        <time>2019-11-17T08:58:03Z</time>
      </trkpt>
      <trkpt lat="45.12576" lon="5.89204">
        <ele>1811.9100341797</ele>
        <time>2019-11-17T08:58:20Z</time>
      </trkpt>
      <trkpt lat="45.12574" lon="5.89219">
        <ele>1821.0100097656</ele>
        <time>2019-11-17T08:58:49Z</time>
      </trkpt>
      <trkpt lat="45.12576" lon="5.8923">
        <ele>1824.0100097656</ele>
        <time>2019-11-17T08:58:56Z</time>
      </trkpt>
      <trkpt lat="45.12577" lon="5.89241">
        <ele>1829.5100097656</ele>
        <time>2019-11-17T08:59:09Z</time>
      </trkpt>
      <trkpt lat="45.12572" lon="5.89249">
        <ele>1845.9100341797</ele>
        <time>2019-11-17T08:59:40Z</time>
      </trkpt>
      <trkpt lat="45.12571" lon="5.8926">
        <ele>1854.2099609375</ele>
        <time>2019-11-17T08:59:55Z</time>
      </trkpt>
      <trkpt lat="45.12573" lon="5.89273">
        <ele>1863.9100341797</ele>
        <time>2019-11-17T09:00:21Z</time>
      </trkpt>
      <trkpt lat="45.12573" lon="5.89283">
        <ele>1868.2099609375</ele>
        <time>2019-11-17T09:00:36Z</time>
      </trkpt>
      <trkpt lat="45.12572" lon="5.89293">
        <ele>1871.5100097656</ele>
        <time>2019-11-17T09:00:53Z</time>
      </trkpt>
      <trkpt lat="45.12574" lon="5.89306">
        <ele>1873.5100097656</ele>
        <time>2019-11-17T09:01:16Z</time>
      </trkpt>
      <trkpt lat="45.12577" lon="5.89316">
        <ele>1875.7099609375</ele>
        <time>2019-11-17T09:01:33Z</time>
      </trkpt>
      <trkpt lat="45.12577" lon="5.89326">
        <ele>1878.0100097656</ele>
        <time>2019-11-17T09:01:50Z</time>
      </trkpt>
      <trkpt lat="45.1258" lon="5.89336">
        <ele>1880.2099609375</ele>
        <time>2019-11-17T09:02:06Z</time>
      </trkpt>
      <trkpt lat="45.12581" lon="5.89346">
        <ele>1881.7099609375</ele>
        <time>2019-11-17T09:02:19Z</time>
      </trkpt>
      <trkpt lat="45.12583" lon="5.89357">
        <ele>1883.7099609375</ele>
        <time>2019-11-17T09:02:33Z</time>
      </trkpt>
      <trkpt lat="45.12587" lon="5.89366">
        <ele>1886.1099853516</ele>
        <time>2019-11-17T09:02:47Z</time>
      </trkpt>
      <trkpt lat="45.12589" lon="5.89376">
        <ele>1887.3100585938</ele>
        <time>2019-11-17T09:03:02Z</time>
      </trkpt>
      <trkpt lat="45.12589" lon="5.89387">
        <ele>1888.1099853516</ele>
        <time>2019-11-17T09:03:19Z</time>
      </trkpt>
      <trkpt lat="45.1259" lon="5.89397">
        <ele>1888.8100585938</ele>
        <time>2019-11-17T09:03:36Z</time>
      </trkpt>
      <trkpt lat="45.12593" lon="5.89409">
        <ele>1890.0100097656</ele>
        <time>2019-11-17T09:03:56Z</time>
      </trkpt>
      <trkpt lat="45.12591" lon="5.8942">
        <ele>1891.5100097656</ele>
        <time>2019-11-17T09:04:13Z</time>
      </trkpt>
      <trkpt lat="45.12595" lon="5.89428">
        <ele>1895.1099853516</ele>
        <time>2019-11-17T09:04:34Z</time>
      </trkpt>
      <trkpt lat="45.12593" lon="5.89449">
        <ele>1900.4100341797</ele>
        <time>2019-11-17T09:05:42Z</time>
      </trkpt>
      <trkpt lat="45.12596" lon="5.89459">
        <ele>1903.2099609375</ele>
        <time>2019-11-17T09:05:58Z</time>
      </trkpt>
      <trkpt lat="45.12598" lon="5.89468">
        <ele>1906.1099853516</ele>
        <time>2019-11-17T09:06:24Z</time>
      </trkpt>
      <trkpt lat="45.126" lon="5.89478">
        <ele>1908.2099609375</ele>
        <time>2019-11-17T09:06:42Z</time>
      </trkpt>
      <trkpt lat="45.126" lon="5.89489">
        <ele>1910.2099609375</ele>
        <time>2019-11-17T09:06:57Z</time>
      </trkpt>
      <trkpt lat="45.126" lon="5.895">
        <ele>1916.1099853516</ele>
        <time>2019-11-17T09:08:59Z</time>
      </trkpt>
      <trkpt lat="45.12594" lon="5.89505">
        <ele>1915.4100341797</ele>
        <time>2019-11-17T09:10:09Z</time>
      </trkpt>
      <trkpt lat="45.12586" lon="5.89509">
        <ele>1914.0100097656</ele>
        <time>2019-11-17T09:10:27Z</time>
      </trkpt>
      <trkpt lat="45.12579" lon="5.89508">
        <ele>1913.2099609375</ele>
        <time>2019-11-17T09:10:42Z</time>
      </trkpt>
      <trkpt lat="45.12573" lon="5.89501">
        <ele>1914.3100585938</ele>
        <time>2019-11-17T09:11:01Z</time>
      </trkpt>
      <trkpt lat="45.12566" lon="5.89496">
        <ele>1916.4100341797</ele>
        <time>2019-11-17T09:11:16Z</time>
      </trkpt>
      <trkpt lat="45.12559" lon="5.89491">
        <ele>1919.7099609375</ele>
        <time>2019-11-17T09:11:37Z</time>
      </trkpt>
      <trkpt lat="45.12552" lon="5.8949">
        <ele>1924.6099853516</ele>
        <time>2019-11-17T09:11:55Z</time>
      </trkpt>
      <trkpt lat="45.12545" lon="5.89491">
        <ele>1928.3100585938</ele>
        <time>2019-11-17T09:12:14Z</time>
      </trkpt>
      <trkpt lat="45.12538" lon="5.89492">
        <ele>1933.3100585938</ele>
        <time>2019-11-17T09:12:34Z</time>
      </trkpt>
      <trkpt lat="45.12532" lon="5.89498">
        <ele>1935.6099853516</ele>
        <time>2019-11-17T09:12:50Z</time>
      </trkpt>
      <trkpt lat="45.12527" lon="5.89506">
        <ele>1936.7099609375</ele>
        <time>2019-11-17T09:13:06Z</time>
      </trkpt>
      <trkpt lat="45.12519" lon="5.89506">
        <ele>1941.8100585938</ele>
        <time>2019-11-17T09:13:19Z</time>
      </trkpt>
      <trkpt lat="45.12512" lon="5.89508">
        <ele>1943.8100585938</ele>
        <time>2019-11-17T09:13:32Z</time>
      </trkpt>
      <trkpt lat="45.12505" lon="5.89513">
        <ele>1946.1099853516</ele>
        <time>2019-11-17T09:13:52Z</time>
      </trkpt>
      <trkpt lat="45.12498" lon="5.89514">
        <ele>1947.7099609375</ele>
        <time>2019-11-17T09:14:04Z</time>
      </trkpt>
      <trkpt lat="45.12491" lon="5.89519">
        <ele>1948.4100341797</ele>
        <time>2019-11-17T09:14:18Z</time>
      </trkpt>
      <trkpt lat="45.12483" lon="5.89521">
        <ele>1949.8100585938</ele>
        <time>2019-11-17T09:14:31Z</time>
      </trkpt>
      <trkpt lat="45.12476" lon="5.89525">
        <ele>1950.3100585938</ele>
        <time>2019-11-17T09:14:45Z</time>
      </trkpt>
      <trkpt lat="45.1247" lon="5.89529">
        <ele>1951.1099853516</ele>
        <time>2019-11-17T09:14:57Z</time>
      </trkpt>
      <trkpt lat="45.12462" lon="5.89528">
        <ele>1952.3100585938</ele>
        <time>2019-11-17T09:15:10Z</time>
      </trkpt>
      <trkpt lat="45.12454" lon="5.8953">
        <ele>1953.8100585938</ele>
        <time>2019-11-17T09:15:24Z</time>
      </trkpt>
      <trkpt lat="45.12448" lon="5.89534">
        <ele>1955.1099853516</ele>
        <time>2019-11-17T09:15:36Z</time>
      </trkpt>
      <trkpt lat="45.1244" lon="5.89536">
        <ele>1955.9100341797</ele>
        <time>2019-11-17T09:15:51Z</time>
      </trkpt>
      <trkpt lat="45.12433" lon="5.8954">
        <ele>1955.7099609375</ele>
        <time>2019-11-17T09:16:06Z</time>
      </trkpt>
      <trkpt lat="45.12427" lon="5.89545">
        <ele>1955.0100097656</ele>
        <time>2019-11-17T09:16:22Z</time>
      </trkpt>
      <trkpt lat="45.12423" lon="5.89555">
        <ele>1955.5100097656</ele>
        <time>2019-11-17T09:16:37Z</time>
      </trkpt>
      <trkpt lat="45.12417" lon="5.89559">
        <ele>1958.0100097656</ele>
        <time>2019-11-17T09:16:52Z</time>
      </trkpt>
      <trkpt lat="45.12415" lon="5.89569">
        <ele>1959.2099609375</ele>
        <time>2019-11-17T09:17:04Z</time>
      </trkpt>
      <trkpt lat="45.1241" lon="5.89578">
        <ele>1965.2099609375</ele>
        <time>2019-11-17T09:17:33Z</time>
      </trkpt>
      <trkpt lat="45.1241" lon="5.89591">
        <ele>1970.0100097656</ele>
        <time>2019-11-17T09:17:55Z</time>
      </trkpt>
      <trkpt lat="45.12411" lon="5.89601">
        <ele>1971.6099853516</ele>
        <time>2019-11-17T09:18:10Z</time>
      </trkpt>
      <trkpt lat="45.12413" lon="5.89612">
        <ele>1972.9100341797</ele>
        <time>2019-11-17T09:18:33Z</time>
      </trkpt>
      <trkpt lat="45.12414" lon="5.89633">
        <ele>1981.6099853516</ele>
        <time>2019-11-17T09:19:26Z</time>
      </trkpt>
      <trkpt lat="45.12416" lon="5.89643">
        <ele>1983.0100097656</ele>
        <time>2019-11-17T09:19:41Z</time>
      </trkpt>
      <trkpt lat="45.12417" lon="5.89666">
        <ele>1989.2099609375</ele>
        <time>2019-11-17T09:21:14Z</time>
      </trkpt>
      <trkpt lat="45.12427" lon="5.89676">
        <ele>1994.0100097656</ele>
        <time>2019-11-17T09:22:01Z</time>
      </trkpt>
      <trkpt lat="45.12429" lon="5.89687">
        <ele>1998.4100341797</ele>
        <time>2019-11-17T09:22:31Z</time>
      </trkpt>
      <trkpt lat="45.12435" lon="5.89692">
        <ele>2001.6099853516</ele>
        <time>2019-11-17T09:23:00Z</time>
      </trkpt>
      <trkpt lat="45.12447" lon="5.89708">
        <ele>2007.7099609375</ele>
        <time>2019-11-17T09:25:31Z</time>
      </trkpt>
      <trkpt lat="45.12447" lon="5.89727">
        <ele>2013.6099853516</ele>
        <time>2019-11-17T09:26:25Z</time>
      </trkpt>
      <trkpt lat="45.12443" lon="5.8974">
        <ele>2015.8100585938</ele>
        <time>2019-11-17T09:26:53Z</time>
      </trkpt>
      <trkpt lat="45.12438" lon="5.89747">
        <ele>2015.6099853516</ele>
        <time>2019-11-17T09:27:22Z</time>
      </trkpt>
      <trkpt lat="45.12434" lon="5.89757">
        <ele>2019.0100097656</ele>
        <time>2019-11-17T09:27:46Z</time>
      </trkpt>
      <trkpt lat="45.12428" lon="5.89762">
        <ele>2021.3100585938</ele>
        <time>2019-11-17T09:28:10Z</time>
      </trkpt>
      <trkpt lat="45.12421" lon="5.89766">
        <ele>2021.6099853516</ele>
        <time>2019-11-17T09:28:28Z</time>
      </trkpt>
      <trkpt lat="45.12413" lon="5.89768">
        <ele>2021.7099609375</ele>
        <time>2019-11-17T09:28:44Z</time>
      </trkpt>
      <trkpt lat="45.12406" lon="5.89765">
        <ele>2023.5100097656</ele>
        <time>2019-11-17T09:29:02Z</time>
      </trkpt>
      <trkpt lat="45.12399" lon="5.89763">
        <ele>2025.1099853516</ele>
        <time>2019-11-17T09:29:19Z</time>
      </trkpt>
      <trkpt lat="45.12392" lon="5.89767">
        <ele>2028.6099853516</ele>
        <time>2019-11-17T09:29:36Z</time>
      </trkpt>
      <trkpt lat="45.12385" lon="5.89764">
        <ele>2029.3100585938</ele>
        <time>2019-11-17T09:29:53Z</time>
      </trkpt>
      <trkpt lat="45.12376" lon="5.89765">
        <ele>2031.2099609375</ele>
        <time>2019-11-17T09:30:25Z</time>
      </trkpt>
      <trkpt lat="45.12368" lon="5.89765">
        <ele>2034.3100585938</ele>
        <time>2019-11-17T09:30:43Z</time>
      </trkpt>
      <trkpt lat="45.12361" lon="5.89764">
        <ele>2036.5100097656</ele>
        <time>2019-11-17T09:31:04Z</time>
      </trkpt>
      <trkpt lat="45.12353" lon="5.89768">
        <ele>2041.0100097656</ele>
        <time>2019-11-17T09:31:28Z</time>
      </trkpt>
      <trkpt lat="45.12345" lon="5.89768">
        <ele>2044.2099609375</ele>
        <time>2019-11-17T09:31:48Z</time>
      </trkpt>
      <trkpt lat="45.12338" lon="5.89766">
        <ele>2048.2099609375</ele>
        <time>2019-11-17T09:32:11Z</time>
      </trkpt>
      <trkpt lat="45.12332" lon="5.89772">
        <ele>2057.0100097656</ele>
        <time>2019-11-17T09:32:38Z</time>
      </trkpt>
      <trkpt lat="45.12325" lon="5.89777">
        <ele>2061.4099121094</ele>
        <time>2019-11-17T09:33:01Z</time>
      </trkpt>
      <trkpt lat="45.12318" lon="5.89772">
        <ele>2065.2099609375</ele>
        <time>2019-11-17T09:33:24Z</time>
      </trkpt>
      <trkpt lat="45.12314" lon="5.8978">
        <ele>2069.3100585938</ele>
        <time>2019-11-17T09:33:50Z</time>
      </trkpt>
      <trkpt lat="45.12312" lon="5.8979">
        <ele>2072.1101074219</ele>
        <time>2019-11-17T09:34:10Z</time>
      </trkpt>
      <trkpt lat="45.12314" lon="5.89807">
        <ele>2075.5100097656</ele>
        <time>2019-11-17T09:34:42Z</time>
      </trkpt>
      <trkpt lat="45.12314" lon="5.89818">
        <ele>2079.2099609375</ele>
        <time>2019-11-17T09:35:10Z</time>
      </trkpt>
      <trkpt lat="45.12314" lon="5.89828">
        <ele>2081.8100585938</ele>
        <time>2019-11-17T09:35:28Z</time>
      </trkpt>
      <trkpt lat="45.12314" lon="5.89839">
        <ele>2084.0100097656</ele>
        <time>2019-11-17T09:35:46Z</time>
      </trkpt>
      <trkpt lat="45.12315" lon="5.89849">
        <ele>2084.0100097656</ele>
        <time>2019-11-17T09:36:03Z</time>
      </trkpt>
      <trkpt lat="45.12316" lon="5.8986">
        <ele>2085.8100585938</ele>
        <time>2019-11-17T09:36:22Z</time>
      </trkpt>
      <trkpt lat="45.12317" lon="5.89872">
        <ele>2085.8100585938</ele>
        <time>2019-11-17T09:36:40Z</time>
      </trkpt>
      <trkpt lat="45.1232" lon="5.89881">
        <ele>2085.7099609375</ele>
        <time>2019-11-17T09:36:59Z</time>
      </trkpt>
      <trkpt lat="45.12324" lon="5.8989">
        <ele>2084.7099609375</ele>
        <time>2019-11-17T09:37:15Z</time>
      </trkpt>
      <trkpt lat="45.12323" lon="5.899">
        <ele>2086.6101074219</ele>
        <time>2019-11-17T09:37:33Z</time>
      </trkpt>
      <trkpt lat="45.12332" lon="5.89904">
        <ele>2092.7099609375</ele>
        <time>2019-11-17T09:39:08Z</time>
      </trkpt>
      <trkpt lat="45.12334" lon="5.89914">
        <ele>2092.6101074219</ele>
        <time>2019-11-17T09:39:23Z</time>
      </trkpt>
      <trkpt lat="45.12335" lon="5.89924">
        <ele>2094.1101074219</ele>
        <time>2019-11-17T09:39:40Z</time>
      </trkpt>
      <trkpt lat="45.12338" lon="5.89934">
        <ele>2096.8100585938</ele>
        <time>2019-11-17T09:39:57Z</time>
      </trkpt>
      <trkpt lat="45.12341" lon="5.89944">
        <ele>2099.4099121094</ele>
        <time>2019-11-17T09:40:11Z</time>
      </trkpt>
      <trkpt lat="45.12342" lon="5.89954">
        <ele>2099.9099121094</ele>
        <time>2019-11-17T09:40:27Z</time>
      </trkpt>
      <trkpt lat="45.12346" lon="5.89964">
        <ele>2100.5100097656</ele>
        <time>2019-11-17T09:40:42Z</time>
      </trkpt>
      <trkpt lat="45.12349" lon="5.89973">
        <ele>2099.2099609375</ele>
        <time>2019-11-17T09:41:00Z</time>
      </trkpt>
      <trkpt lat="45.12349" lon="5.89984">
        <ele>2100.2099609375</ele>
        <time>2019-11-17T09:41:15Z</time>
      </trkpt>
      <trkpt lat="45.12354" lon="5.89991">
        <ele>2100.6101074219</ele>
        <time>2019-11-17T09:41:26Z</time>
      </trkpt>
      <trkpt lat="45.1236" lon="5.89998">
        <ele>2102.5100097656</ele>
        <time>2019-11-17T09:41:36Z</time>
      </trkpt>
      <trkpt lat="45.12363" lon="5.90008">
        <ele>2107.3100585938</ele>
        <time>2019-11-17T09:41:55Z</time>
      </trkpt>
      <trkpt lat="45.12368" lon="5.90022">
        <ele>2109.3100585938</ele>
        <time>2019-11-17T09:42:23Z</time>
      </trkpt>
      <trkpt lat="45.1237" lon="5.90032">
        <ele>2109.3100585938</ele>
        <time>2019-11-17T09:42:41Z</time>
      </trkpt>
      <trkpt lat="45.12379" lon="5.90038">
        <ele>2111.6101074219</ele>
        <time>2019-11-17T09:42:52Z</time>
      </trkpt>
      <trkpt lat="45.12382" lon="5.90048">
        <ele>2111.8100585938</ele>
        <time>2019-11-17T09:43:07Z</time>
      </trkpt>
      <trkpt lat="45.1239" lon="5.90051">
        <ele>2114.0100097656</ele>
        <time>2019-11-17T09:43:15Z</time>
      </trkpt>
      <trkpt lat="45.12396" lon="5.90056">
        <ele>2115.1101074219</ele>
        <time>2019-11-17T09:43:29Z</time>
      </trkpt>
      <trkpt lat="45.124" lon="5.90065">
        <ele>2114.6110839844</ele>
        <time>2019-11-17T09:43:44Z</time>
      </trkpt>
      <trkpt lat="45.12401" lon="5.90076">
        <ele>2117.9108886719</ele>
        <time>2019-11-17T09:44:05Z</time>
      </trkpt>
      <trkpt lat="45.12406" lon="5.90082">
        <ele>2118.2109375</ele>
        <time>2019-11-17T09:44:21Z</time>
      </trkpt>
      <trkpt lat="45.12412" lon="5.90088">
        <ele>2118.9108886719</ele>
        <time>2019-11-17T09:44:35Z</time>
      </trkpt>
      <trkpt lat="45.12418" lon="5.90095">
        <ele>2120.2109375</ele>
        <time>2019-11-17T09:44:50Z</time>
      </trkpt>
      <trkpt lat="45.1242" lon="5.90105">
        <ele>2123.4108886719</ele>
        <time>2019-11-17T09:45:09Z</time>
      </trkpt>
      <trkpt lat="45.12421" lon="5.90116">
        <ele>2125.1110839844</ele>
        <time>2019-11-17T09:45:24Z</time>
      </trkpt>
      <trkpt lat="45.12424" lon="5.90126">
        <ele>2125.2109375</ele>
        <time>2019-11-17T09:45:39Z</time>
      </trkpt>
      <trkpt lat="45.12431" lon="5.90131">
        <ele>2127.7109375</ele>
        <time>2019-11-17T09:45:49Z</time>
      </trkpt>
      <trkpt lat="45.12435" lon="5.9014">
        <ele>2128.1110839844</ele>
        <time>2019-11-17T09:46:05Z</time>
      </trkpt>
      <trkpt lat="45.12439" lon="5.90149">
        <ele>2130.0109863281</ele>
        <time>2019-11-17T09:46:16Z</time>
      </trkpt>
      <trkpt lat="45.12446" lon="5.90154">
        <ele>2130.6110839844</ele>
        <time>2019-11-17T09:46:25Z</time>
      </trkpt>
      <trkpt lat="45.12445" lon="5.90164">
        <ele>2131.6110839844</ele>
        <time>2019-11-17T09:46:37Z</time>
      </trkpt>
      <trkpt lat="45.12451" lon="5.90171">
        <ele>2133.5109863281</ele>
        <time>2019-11-17T09:46:51Z</time>
      </trkpt>
      <trkpt lat="45.12455" lon="5.90181">
        <ele>2133.9108886719</ele>
        <time>2019-11-17T09:47:04Z</time>
      </trkpt>
      <trkpt lat="45.12456" lon="5.90192">
        <ele>2136.2109375</ele>
        <time>2019-11-17T09:47:20Z</time>
      </trkpt>
      <trkpt lat="45.12459" lon="5.90202">
        <ele>2138.1110839844</ele>
        <time>2019-11-17T09:47:32Z</time>
      </trkpt>
      <trkpt lat="45.1246" lon="5.90212">
        <ele>2137.0109863281</ele>
        <time>2019-11-17T09:47:45Z</time>
      </trkpt>
      <trkpt lat="45.12463" lon="5.90222">
        <ele>2135.3110351562</ele>
        <time>2019-11-17T09:47:58Z</time>
      </trkpt>
      <trkpt lat="45.12466" lon="5.90231">
        <ele>2134.9108886719</ele>
        <time>2019-11-17T09:48:12Z</time>
      </trkpt>
      <trkpt lat="45.1247" lon="5.90239">
        <ele>2135.4108886719</ele>
        <time>2019-11-17T09:48:23Z</time>
      </trkpt>
      <trkpt lat="45.12474" lon="5.90249">
        <ele>2134.5109863281</ele>
        <time>2019-11-17T09:48:39Z</time>
      </trkpt>
      <trkpt lat="45.12476" lon="5.90259">
        <ele>2135.1110839844</ele>
        <time>2019-11-17T09:48:52Z</time>
      </trkpt>
      <trkpt lat="45.12477" lon="5.9027">
        <ele>2139.4108886719</ele>
        <time>2019-11-17T09:49:07Z</time>
      </trkpt>
      <trkpt lat="45.1248" lon="5.90279">
        <ele>2138.8110351562</ele>
        <time>2019-11-17T09:49:23Z</time>
      </trkpt>
      <trkpt lat="45.12487" lon="5.90287">
        <ele>2139.5109863281</ele>
        <time>2019-11-17T09:49:36Z</time>
      </trkpt>
      <trkpt lat="45.12493" lon="5.90294">
        <ele>2139.5109863281</ele>
        <time>2019-11-17T09:49:47Z</time>
      </trkpt>
      <trkpt lat="45.12499" lon="5.90301">
        <ele>2141.4108886719</ele>
        <time>2019-11-17T09:50:00Z</time>
      </trkpt>
      <trkpt lat="45.12507" lon="5.90308">
        <ele>2142.9108886719</ele>
        <time>2019-11-17T09:50:12Z</time>
      </trkpt>
      <trkpt lat="45.12515" lon="5.9031">
        <ele>2145.4108886719</ele>
        <time>2019-11-17T09:50:21Z</time>
      </trkpt>
      <trkpt lat="45.1252" lon="5.90318">
        <ele>2150.7109375</ele>
        <time>2019-11-17T09:50:37Z</time>
      </trkpt>
      <trkpt lat="45.12526" lon="5.90325">
        <ele>2156.0109863281</ele>
        <time>2019-11-17T09:50:49Z</time>
      </trkpt>
      <trkpt lat="45.12534" lon="5.90326">
        <ele>2167.2109375</ele>
        <time>2019-11-17T09:51:05Z</time>
      </trkpt>
      <trkpt lat="45.12541" lon="5.90322">
        <ele>2172.2109375</ele>
        <time>2019-11-17T09:51:10Z</time>
      </trkpt>
      <trkpt lat="45.12546" lon="5.90316">
        <ele>2180.5109863281</ele>
        <time>2019-11-17T09:51:25Z</time>
      </trkpt>
      <trkpt lat="45.12538" lon="5.90319">
        <ele>2186.4108886719</ele>
        <time>2019-11-17T10:08:05Z</time>
      </trkpt>
      <trkpt lat="45.12522" lon="5.90293">
        <ele>2181.8110351562</ele>
        <time>2019-11-17T10:08:11Z</time>
      </trkpt>
      <trkpt lat="45.12517" lon="5.90286">
        <ele>2179.0109863281</ele>
        <time>2019-11-17T10:08:42Z</time>
      </trkpt>
      <trkpt lat="45.12505" lon="5.90265">
        <ele>2176.9108886719</ele>
        <time>2019-11-17T10:08:48Z</time>
      </trkpt>
      <trkpt lat="45.12489" lon="5.90238">
        <ele>2173.4108886719</ele>
        <time>2019-11-17T10:08:54Z</time>
      </trkpt>
      <trkpt lat="45.12469" lon="5.9022">
        <ele>2171.5109863281</ele>
        <time>2019-11-17T10:09:01Z</time>
      </trkpt>
      <trkpt lat="45.12455" lon="5.90203">
        <ele>2166.7109375</ele>
        <time>2019-11-17T10:09:06Z</time>
      </trkpt>
      <trkpt lat="45.12448" lon="5.90183">
        <ele>2163.0109863281</ele>
        <time>2019-11-17T10:09:11Z</time>
      </trkpt>
      <trkpt lat="45.12447" lon="5.90161">
        <ele>2159.9108886719</ele>
        <time>2019-11-17T10:09:16Z</time>
      </trkpt>
      <trkpt lat="45.12432" lon="5.9015">
        <ele>2160.4108886719</ele>
        <time>2019-11-17T10:09:22Z</time>
      </trkpt>
      <trkpt lat="45.12424" lon="5.90127">
        <ele>2159.7109375</ele>
        <time>2019-11-17T10:09:27Z</time>
      </trkpt>
      <trkpt lat="45.12405" lon="5.90103">
        <ele>2156.6110839844</ele>
        <time>2019-11-17T10:09:33Z</time>
      </trkpt>
      <trkpt lat="45.12381" lon="5.90079">
        <ele>2149.9099121094</ele>
        <time>2019-11-17T10:09:39Z</time>
      </trkpt>
      <trkpt lat="45.12358" lon="5.90059">
        <ele>2144.4099121094</ele>
        <time>2019-11-17T10:09:45Z</time>
      </trkpt>
      <trkpt lat="45.12336" lon="5.9003">
        <ele>2140.4099121094</ele>
        <time>2019-11-17T10:09:51Z</time>
      </trkpt>
      <trkpt lat="45.12312" lon="5.90002">
        <ele>2134.7099609375</ele>
        <time>2019-11-17T10:09:57Z</time>
      </trkpt>
      <trkpt lat="45.12289" lon="5.89975">
        <ele>2131.2099609375</ele>
        <time>2019-11-17T10:10:03Z</time>
      </trkpt>
      <trkpt lat="45.12274" lon="5.89963">
        <ele>2127.5100097656</ele>
        <time>2019-11-17T10:10:08Z</time>
      </trkpt>
      <trkpt lat="45.12249" lon="5.8996">
        <ele>2124.8100585938</ele>
        <time>2019-11-17T10:11:04Z</time>
      </trkpt>
      <trkpt lat="45.12227" lon="5.89962">
        <ele>2122.9099121094</ele>
        <time>2019-11-17T10:11:09Z</time>
      </trkpt>
      <trkpt lat="45.12205" lon="5.89981">
        <ele>2117.2099609375</ele>
        <time>2019-11-17T10:11:15Z</time>
      </trkpt>
      <trkpt lat="45.12168" lon="5.89973">
        <ele>2111.3100585938</ele>
        <time>2019-11-17T10:11:20Z</time>
      </trkpt>
      <trkpt lat="45.12129" lon="5.89964">
        <ele>2106.6101074219</ele>
        <time>2019-11-17T10:11:25Z</time>
      </trkpt>
      <trkpt lat="45.12094" lon="5.89947">
        <ele>2104.1101074219</ele>
        <time>2019-11-17T10:11:30Z</time>
      </trkpt>
      <trkpt lat="45.1206" lon="5.89927">
        <ele>2103.8100585938</ele>
        <time>2019-11-17T10:11:36Z</time>
      </trkpt>
      <trkpt lat="45.12059" lon="5.89914">
        <ele>2099.2099609375</ele>
        <time>2019-11-17T10:12:21Z</time>
      </trkpt>
      <trkpt lat="45.12056" lon="5.89887">
        <ele>2097.2099609375</ele>
        <time>2019-11-17T10:12:27Z</time>
      </trkpt>
      <trkpt lat="45.12056" lon="5.89876">
        <ele>2096.6101074219</ele>
        <time>2019-11-17T10:13:54Z</time>
      </trkpt>
      <trkpt lat="45.12057" lon="5.89864">
        <ele>2095.3100585938</ele>
        <time>2019-11-17T10:13:59Z</time>
      </trkpt>
      <trkpt lat="45.12078" lon="5.89855">
        <ele>2086.1101074219</ele>
        <time>2019-11-17T10:14:05Z</time>
      </trkpt>
      <trkpt lat="45.1209" lon="5.89811">
        <ele>2074.5100097656</ele>
        <time>2019-11-17T10:14:11Z</time>
      </trkpt>
      <trkpt lat="45.12076" lon="5.89767">
        <ele>2068.4089355469</ele>
        <time>2019-11-17T10:14:17Z</time>
      </trkpt>
      <trkpt lat="45.12057" lon="5.89734">
        <ele>2063.3090820312</ele>
        <time>2019-11-17T10:14:23Z</time>
      </trkpt>
      <trkpt lat="45.12048" lon="5.89717">
        <ele>2057.5090332031</ele>
        <time>2019-11-17T10:14:30Z</time>
      </trkpt>
      <trkpt lat="45.12045" lon="5.89706">
        <ele>2054.6088867188</ele>
        <time>2019-11-17T10:16:21Z</time>
      </trkpt>
      <trkpt lat="45.12019" lon="5.89673">
        <ele>2049.9089355469</ele>
        <time>2019-11-17T10:16:27Z</time>
      </trkpt>
      <trkpt lat="45.11986" lon="5.89642">
        <ele>2038.1090087891</ele>
        <time>2019-11-17T10:16:33Z</time>
      </trkpt>
      <trkpt lat="45.1197" lon="5.89615">
        <ele>2030.1090087891</ele>
        <time>2019-11-17T10:16:39Z</time>
      </trkpt>
      <trkpt lat="45.11965" lon="5.89607">
        <ele>2024.6090087891</ele>
        <time>2019-11-17T10:17:33Z</time>
      </trkpt>
      <trkpt lat="45.11959" lon="5.89584">
        <ele>2022.4090576172</ele>
        <time>2019-11-17T10:17:38Z</time>
      </trkpt>
      <trkpt lat="45.11957" lon="5.89516">
        <ele>2016.5090332031</ele>
        <time>2019-11-17T10:17:43Z</time>
      </trkpt>
      <trkpt lat="45.11976" lon="5.8949">
        <ele>2005.0090332031</ele>
        <time>2019-11-17T10:17:49Z</time>
      </trkpt>
      <trkpt lat="45.1199" lon="5.89458">
        <ele>1997.9090576172</ele>
        <time>2019-11-17T10:18:55Z</time>
      </trkpt>
      <trkpt lat="45.12009" lon="5.89427">
        <ele>1987.208984375</ele>
        <time>2019-11-17T10:20:28Z</time>
      </trkpt>
      <trkpt lat="45.12022" lon="5.89382">
        <ele>1982.9090576172</ele>
        <time>2019-11-17T10:20:33Z</time>
      </trkpt>
      <trkpt lat="45.12027" lon="5.89342">
        <ele>1975.5090332031</ele>
        <time>2019-11-17T10:20:39Z</time>
      </trkpt>
      <trkpt lat="45.12049" lon="5.89318">
        <ele>1954.0090332031</ele>
        <time>2019-11-17T10:22:54Z</time>
      </trkpt>
      <trkpt lat="45.12069" lon="5.8929">
        <ele>1947.6090087891</ele>
        <time>2019-11-17T10:23:00Z</time>
      </trkpt>
      <trkpt lat="45.12084" lon="5.89239">
        <ele>1939.4090576172</ele>
        <time>2019-11-17T10:23:06Z</time>
      </trkpt>
      <trkpt lat="45.12102" lon="5.89208">
        <ele>1933.6090087891</ele>
        <time>2019-11-17T10:23:11Z</time>
      </trkpt>
      <trkpt lat="45.12126" lon="5.8919">
        <ele>1925.9090576172</ele>
        <time>2019-11-17T10:23:25Z</time>
      </trkpt>
      <trkpt lat="45.12135" lon="5.89162">
        <ele>1922.208984375</ele>
        <time>2019-11-17T10:23:32Z</time>
      </trkpt>
      <trkpt lat="45.12128" lon="5.89134">
        <ele>1918.0090332031</ele>
        <time>2019-11-17T10:23:38Z</time>
      </trkpt>
      <trkpt lat="45.12143" lon="5.89098">
        <ele>1911.9090576172</ele>
        <time>2019-11-17T10:23:43Z</time>
      </trkpt>
      <trkpt lat="45.12146" lon="5.89054">
        <ele>1901.1090087891</ele>
        <time>2019-11-17T10:23:48Z</time>
      </trkpt>
      <trkpt lat="45.12146" lon="5.89041">
        <ele>1889.208984375</ele>
        <time>2019-11-17T10:25:31Z</time>
      </trkpt>
      <trkpt lat="45.12161" lon="5.88996">
        <ele>1885.2080078125</ele>
        <time>2019-11-17T10:25:37Z</time>
      </trkpt>
      <trkpt lat="45.12185" lon="5.88945">
        <ele>1875.7080078125</ele>
        <time>2019-11-17T10:25:43Z</time>
      </trkpt>
      <trkpt lat="45.12194" lon="5.88902">
        <ele>1869.6080322266</ele>
        <time>2019-11-17T10:25:49Z</time>
      </trkpt>
      <trkpt lat="45.12208" lon="5.88857">
        <ele>1863.5080566406</ele>
        <time>2019-11-17T10:25:55Z</time>
      </trkpt>
      <trkpt lat="45.12222" lon="5.88805">
        <ele>1858.4079589844</ele>
        <time>2019-11-17T10:26:01Z</time>
      </trkpt>
      <trkpt lat="45.12229" lon="5.88768">
        <ele>1843.9079589844</ele>
        <time>2019-11-17T10:26:08Z</time>
      </trkpt>
      <trkpt lat="45.12223" lon="5.88755">
        <ele>1844.6080322266</ele>
        <time>2019-11-17T10:26:48Z</time>
      </trkpt>
      <trkpt lat="45.12228" lon="5.88763">
        <ele>1846.1080322266</ele>
        <time>2019-11-17T10:27:12Z</time>
      </trkpt>
      <trkpt lat="45.12245" lon="5.88738">
        <ele>1842.5080566406</ele>
        <time>2019-11-17T10:27:17Z</time>
      </trkpt>
      <trkpt lat="45.12265" lon="5.88682">
        <ele>1825.6080322266</ele>
        <time>2019-11-17T10:28:22Z</time>
      </trkpt>
      <trkpt lat="45.12285" lon="5.88645">
        <ele>1816.3079833984</ele>
        <time>2019-11-17T10:28:27Z</time>
      </trkpt>
      <trkpt lat="45.123" lon="5.88594">
        <ele>1810.1080322266</ele>
        <time>2019-11-17T10:28:32Z</time>
      </trkpt>
      <trkpt lat="45.1232" lon="5.88557">
        <ele>1801.1080322266</ele>
        <time>2019-11-17T10:28:37Z</time>
      </trkpt>
      <trkpt lat="45.12343" lon="5.88546">
        <ele>1793.2080078125</ele>
        <time>2019-11-17T10:28:43Z</time>
      </trkpt>
      <trkpt lat="45.12366" lon="5.8855">
        <ele>1784.3079833984</ele>
        <time>2019-11-17T10:28:49Z</time>
      </trkpt>
      <trkpt lat="45.12387" lon="5.88547">
        <ele>1779.9079589844</ele>
        <time>2019-11-17T10:28:55Z</time>
      </trkpt>
      <trkpt lat="45.12411" lon="5.88562">
        <ele>1780.8079833984</ele>
        <time>2019-11-17T10:29:01Z</time>
      </trkpt>
      <trkpt lat="45.12426" lon="5.88569">
        <ele>1779.9079589844</ele>
        <time>2019-11-17T10:29:08Z</time>
      </trkpt>
      <trkpt lat="45.12441" lon="5.88575">
        <ele>1774.3079833984</ele>
        <time>2019-11-17T10:29:15Z</time>
      </trkpt>
      <trkpt lat="45.12435" lon="5.88583">
        <ele>1776.1080322266</ele>
        <time>2019-11-17T10:31:55Z</time>
      </trkpt>
      <trkpt lat="45.12428" lon="5.88597">
        <ele>1783.8079833984</ele>
        <time>2019-11-17T10:32:16Z</time>
      </trkpt>
      <trkpt lat="45.12422" lon="5.88607">
        <ele>1783.0080566406</ele>
        <time>2019-11-17T10:32:42Z</time>
      </trkpt>
      <trkpt lat="45.12416" lon="5.88621">
        <ele>1785.8079833984</ele>
        <time>2019-11-17T10:33:08Z</time>
      </trkpt>
      <trkpt lat="45.12416" lon="5.88634">
        <ele>1788.9079589844</ele>
        <time>2019-11-17T10:33:49Z</time>
      </trkpt>
      <trkpt lat="45.12415" lon="5.88649">
        <ele>1791.208984375</ele>
        <time>2019-11-17T10:34:19Z</time>
      </trkpt>
      <trkpt lat="45.12414" lon="5.88663">
        <ele>1793.3089599609</ele>
        <time>2019-11-17T10:34:35Z</time>
      </trkpt>
      <trkpt lat="45.12417" lon="5.88677">
        <ele>1795.9090576172</ele>
        <time>2019-11-17T10:34:58Z</time>
      </trkpt>
      <trkpt lat="45.1242" lon="5.88691">
        <ele>1799.4090576172</ele>
        <time>2019-11-17T10:35:16Z</time>
      </trkpt>
      <trkpt lat="45.12428" lon="5.88701">
        <ele>1801.208984375</ele>
        <time>2019-11-17T10:35:29Z</time>
      </trkpt>
      <trkpt lat="45.12419" lon="5.88702">
        <ele>1787.3089599609</ele>
        <time>2019-11-17T10:38:32Z</time>
      </trkpt>
      <trkpt lat="45.12428" lon="5.88705">
        <ele>1793.0090332031</ele>
        <time>2019-11-17T10:40:22Z</time>
      </trkpt>
      <trkpt lat="45.12413" lon="5.887">
        <ele>1792.5090332031</ele>
        <time>2019-11-17T10:41:48Z</time>
      </trkpt>
      <trkpt lat="45.12419" lon="5.88709">
        <ele>1792.9090576172</ele>
        <time>2019-11-17T10:42:33Z</time>
      </trkpt>
      <trkpt lat="45.12431" lon="5.88721">
        <ele>1794.6090087891</ele>
        <time>2019-11-17T10:42:55Z</time>
      </trkpt>
      <trkpt lat="45.12437" lon="5.88729">
        <ele>1798.5090332031</ele>
        <time>2019-11-17T10:43:10Z</time>
      </trkpt>
      <trkpt lat="45.12445" lon="5.88733">
        <ele>1797.9090576172</ele>
        <time>2019-11-17T10:43:17Z</time>
      </trkpt>
      <trkpt lat="45.12456" lon="5.88741">
        <ele>1799.4090576172</ele>
        <time>2019-11-17T10:43:32Z</time>
      </trkpt>
      <trkpt lat="45.12466" lon="5.88749">
        <ele>1801.5090332031</ele>
        <time>2019-11-17T10:43:48Z</time>
      </trkpt>
      <trkpt lat="45.12475" lon="5.88759">
        <ele>1804.0090332031</ele>
        <time>2019-11-17T10:44:17Z</time>
      </trkpt>
      <trkpt lat="45.12481" lon="5.8877">
        <ele>1806.5090332031</ele>
        <time>2019-11-17T10:44:44Z</time>
      </trkpt>
      <trkpt lat="45.12488" lon="5.88779">
        <ele>1807.6090087891</ele>
        <time>2019-11-17T10:45:04Z</time>
      </trkpt>
      <trkpt lat="45.12498" lon="5.88784">
        <ele>1808.208984375</ele>
        <time>2019-11-17T10:45:29Z</time>
      </trkpt>
      <trkpt lat="45.12508" lon="5.8878">
        <ele>1815.8089599609</ele>
        <time>2019-11-17T10:45:50Z</time>
      </trkpt>
      <trkpt lat="45.12519" lon="5.88789">
        <ele>1815.4090576172</ele>
        <time>2019-11-17T10:46:13Z</time>
      </trkpt>
      <trkpt lat="45.12528" lon="5.888">
        <ele>1812.4090576172</ele>
        <time>2019-11-17T10:46:32Z</time>
      </trkpt>
      <trkpt lat="45.12538" lon="5.88805">
        <ele>1812.708984375</ele>
        <time>2019-11-17T10:46:49Z</time>
      </trkpt>
      <trkpt lat="45.12548" lon="5.88813">
        <ele>1810.5090332031</ele>
        <time>2019-11-17T10:47:04Z</time>
      </trkpt>
      <trkpt lat="45.1255" lon="5.88826">
        <ele>1813.6090087891</ele>
        <time>2019-11-17T10:48:27Z</time>
      </trkpt>
      <trkpt lat="45.12561" lon="5.88832">
        <ele>1816.8089599609</ele>
        <time>2019-11-17T10:48:52Z</time>
      </trkpt>
      <trkpt lat="45.1257" lon="5.88839">
        <ele>1817.5090332031</ele>
        <time>2019-11-17T10:49:30Z</time>
      </trkpt>
      <trkpt lat="45.12578" lon="5.88847">
        <ele>1820.1090087891</ele>
        <time>2019-11-17T10:49:47Z</time>
      </trkpt>
      <trkpt lat="45.12577" lon="5.88864">
        <ele>1825.4090576172</ele>
        <time>2019-11-17T10:50:02Z</time>
      </trkpt>
      <trkpt lat="45.12588" lon="5.88872">
        <ele>1824.0090332031</ele>
        <time>2019-11-17T10:50:58Z</time>
      </trkpt>
      <trkpt lat="45.126" lon="5.88883">
        <ele>1820.9090576172</ele>
        <time>2019-11-17T10:51:14Z</time>
      </trkpt>
      <trkpt lat="45.12609" lon="5.88893">
        <ele>1821.5090332031</ele>
        <time>2019-11-17T10:51:33Z</time>
      </trkpt>
      <trkpt lat="45.12614" lon="5.88906">
        <ele>1818.8089599609</ele>
        <time>2019-11-17T10:52:54Z</time>
      </trkpt>
      <trkpt lat="45.12617" lon="5.88921">
        <ele>1820.0090332031</ele>
        <time>2019-11-17T10:53:13Z</time>
      </trkpt>
      <trkpt lat="45.12625" lon="5.88923">
        <ele>1813.6090087891</ele>
        <time>2019-11-17T10:58:32Z</time>
      </trkpt>
      <trkpt lat="45.12632" lon="5.88922">
        <ele>1814.208984375</ele>
        <time>2019-11-17T11:00:25Z</time>
      </trkpt>
      <trkpt lat="45.12651" lon="5.88925">
        <ele>1819.9090576172</ele>
        <time>2019-11-17T11:00:32Z</time>
      </trkpt>
      <trkpt lat="45.12677" lon="5.88932">
        <ele>1819.4090576172</ele>
        <time>2019-11-17T11:00:38Z</time>
      </trkpt>
      <trkpt lat="45.12707" lon="5.88932">
        <ele>1820.5100097656</ele>
        <time>2019-11-17T11:00:44Z</time>
      </trkpt>
      <trkpt lat="45.12725" lon="5.88929">
        <ele>1817.2099609375</ele>
        <time>2019-11-17T11:00:49Z</time>
      </trkpt>
      <trkpt lat="45.12742" lon="5.88936">
        <ele>1814.5100097656</ele>
        <time>2019-11-17T11:00:56Z</time>
      </trkpt>
      <trkpt lat="45.12758" lon="5.88948">
        <ele>1816.2099609375</ele>
        <time>2019-11-17T11:01:04Z</time>
      </trkpt>
      <trkpt lat="45.12769" lon="5.88964">
        <ele>1816.2099609375</ele>
        <time>2019-11-17T11:01:11Z</time>
      </trkpt>
      <trkpt lat="45.12775" lon="5.88953">
        <ele>1811.7099609375</ele>
        <time>2019-11-17T11:01:45Z</time>
      </trkpt>
      <trkpt lat="45.12804" lon="5.88938">
        <ele>1805.4100341797</ele>
        <time>2019-11-17T11:01:51Z</time>
      </trkpt>
      <trkpt lat="45.1283" lon="5.88922">
        <ele>1799.3100585938</ele>
        <time>2019-11-17T11:01:57Z</time>
      </trkpt>
      <trkpt lat="45.12856" lon="5.88898">
        <ele>1788.3100585938</ele>
        <time>2019-11-17T11:02:03Z</time>
      </trkpt>
      <trkpt lat="45.12884" lon="5.88891">
        <ele>1780.4100341797</ele>
        <time>2019-11-17T11:02:09Z</time>
      </trkpt>
      <trkpt lat="45.12901" lon="5.88889">
        <ele>1775.0100097656</ele>
        <time>2019-11-17T11:02:14Z</time>
      </trkpt>
      <trkpt lat="45.1291" lon="5.88881">
        <ele>1769.5100097656</ele>
        <time>2019-11-17T11:02:40Z</time>
      </trkpt>
      <trkpt lat="45.1293" lon="5.88872">
        <ele>1768.3100585938</ele>
        <time>2019-11-17T11:02:45Z</time>
      </trkpt>
      <trkpt lat="45.12947" lon="5.88868">
        <ele>1762.8100585938</ele>
        <time>2019-11-17T11:02:50Z</time>
      </trkpt>
      <trkpt lat="45.12979" lon="5.88863">
        <ele>1753.3100585938</ele>
        <time>2019-11-17T11:02:56Z</time>
      </trkpt>
      <trkpt lat="45.13009" lon="5.88869">
        <ele>1747.2099609375</ele>
        <time>2019-11-17T11:03:02Z</time>
      </trkpt>
      <trkpt lat="45.13029" lon="5.88865">
        <ele>1739.4100341797</ele>
        <time>2019-11-17T11:03:07Z</time>
      </trkpt>
      <trkpt lat="45.13048" lon="5.88856">
        <ele>1733.7099609375</ele>
        <time>2019-11-17T11:03:51Z</time>
      </trkpt>
      <trkpt lat="45.13068" lon="5.88873">
        <ele>1734.1099853516</ele>
        <time>2019-11-17T11:03:56Z</time>
      </trkpt>
      <trkpt lat="45.13097" lon="5.88879">
        <ele>1730.9100341797</ele>
        <time>2019-11-17T11:04:02Z</time>
      </trkpt>
      <trkpt lat="45.13131" lon="5.88852">
        <ele>1720.9100341797</ele>
        <time>2019-11-17T11:04:08Z</time>
      </trkpt>
      <trkpt lat="45.1315" lon="5.88818">
        <ele>1709.0100097656</ele>
        <time>2019-11-17T11:04:15Z</time>
      </trkpt>
      <trkpt lat="45.13157" lon="5.88816">
        <ele>1712.9100341797</ele>
        <time>2019-11-17T11:04:34Z</time>
      </trkpt>
      <trkpt lat="45.13174" lon="5.88822">
        <ele>1712.4100341797</ele>
        <time>2019-11-17T11:04:39Z</time>
      </trkpt>
      <trkpt lat="45.13195" lon="5.88825">
        <ele>1708.0100097656</ele>
        <time>2019-11-17T11:04:44Z</time>
      </trkpt>
      <trkpt lat="45.13207" lon="5.88819">
        <ele>1699.3100585938</ele>
        <time>2019-11-17T11:04:51Z</time>
      </trkpt>
      <trkpt lat="45.13212" lon="5.88797">
        <ele>1691.6099853516</ele>
        <time>2019-11-17T11:04:59Z</time>
      </trkpt>
      <trkpt lat="45.13217" lon="5.88786">
        <ele>1688.2099609375</ele>
        <time>2019-11-17T11:05:05Z</time>
      </trkpt>
      <trkpt lat="45.13217" lon="5.88763">
        <ele>1687.1099853516</ele>
        <time>2019-11-17T11:05:11Z</time>
      </trkpt>
      <trkpt lat="45.1322" lon="5.88754">
        <ele>1682.7099609375</ele>
        <time>2019-11-17T11:05:16Z</time>
      </trkpt>
      <trkpt lat="45.13227" lon="5.88764">
        <ele>1679.5100097656</ele>
        <time>2019-11-17T11:05:38Z</time>
      </trkpt>
      <trkpt lat="45.13237" lon="5.88768">
        <ele>1675.8100585938</ele>
        <time>2019-11-17T11:05:46Z</time>
      </trkpt>
      <trkpt lat="45.1324" lon="5.88757">
        <ele>1670.0100097656</ele>
        <time>2019-11-17T11:06:01Z</time>
      </trkpt>
      <trkpt lat="45.13247" lon="5.88743">
        <ele>1669.4100341797</ele>
        <time>2019-11-17T11:06:07Z</time>
      </trkpt>
      <trkpt lat="45.13278" lon="5.88734">
        <ele>1668.9100341797</ele>
        <time>2019-11-17T11:06:12Z</time>
      </trkpt>
      <trkpt lat="45.13303" lon="5.88784">
        <ele>1666.6109619141</ele>
        <time>2019-11-17T11:06:18Z</time>
      </trkpt>
      <trkpt lat="45.13313" lon="5.88843">
        <ele>1660.2110595703</ele>
        <time>2019-11-17T11:06:24Z</time>
      </trkpt>
      <trkpt lat="45.13339" lon="5.88839">
        <ele>1649.8110351562</ele>
        <time>2019-11-17T11:06:30Z</time>
      </trkpt>
      <trkpt lat="45.13358" lon="5.88838">
        <ele>1645.7110595703</ele>
        <time>2019-11-17T11:06:37Z</time>
      </trkpt>
      <trkpt lat="45.13357" lon="5.88825">
        <ele>1646.4110107422</ele>
        <time>2019-11-17T11:07:07Z</time>
      </trkpt>
      <trkpt lat="45.13358" lon="5.88813">
        <ele>1648.5109863281</ele>
        <time>2019-11-17T11:09:22Z</time>
      </trkpt>
      <trkpt lat="45.13373" lon="5.88798">
        <ele>1646.5109863281</ele>
        <time>2019-11-17T11:09:27Z</time>
      </trkpt>
      <trkpt lat="45.13385" lon="5.88781">
        <ele>1641.0109863281</ele>
        <time>2019-11-17T11:09:32Z</time>
      </trkpt>
      <trkpt lat="45.13407" lon="5.88801">
        <ele>1635.1109619141</ele>
        <time>2019-11-17T11:09:38Z</time>
      </trkpt>
      <trkpt lat="45.13419" lon="5.88805">
        <ele>1629.0109863281</ele>
        <time>2019-11-17T11:09:44Z</time>
      </trkpt>
      <trkpt lat="45.13433" lon="5.88819">
        <ele>1623.8110351562</ele>
        <time>2019-11-17T11:09:49Z</time>
      </trkpt>
      <trkpt lat="45.13446" lon="5.88804">
        <ele>1616.7110595703</ele>
        <time>2019-11-17T11:09:54Z</time>
      </trkpt>
      <trkpt lat="45.13462" lon="5.88786">
        <ele>1610.3110351562</ele>
        <time>2019-11-17T11:09:59Z</time>
      </trkpt>
      <trkpt lat="45.13479" lon="5.88797">
        <ele>1606.3110351562</ele>
        <time>2019-11-17T11:10:04Z</time>
      </trkpt>
      <trkpt lat="45.13502" lon="5.88808">
        <ele>1601.4110107422</ele>
        <time>2019-11-17T11:10:09Z</time>
      </trkpt>
      <trkpt lat="45.13519" lon="5.88817">
        <ele>1592.7110595703</ele>
        <time>2019-11-17T11:10:14Z</time>
      </trkpt>
      <trkpt lat="45.13534" lon="5.88814">
        <ele>1585.8110351562</ele>
        <time>2019-11-17T11:10:19Z</time>
      </trkpt>
      <trkpt lat="45.13542" lon="5.88819">
        <ele>1581.5109863281</ele>
        <time>2019-11-17T11:10:24Z</time>
      </trkpt>
      <trkpt lat="45.13543" lon="5.88833">
        <ele>1580.9110107422</ele>
        <time>2019-11-17T11:10:32Z</time>
      </trkpt>
      <trkpt lat="45.13553" lon="5.88849">
        <ele>1582.5109863281</ele>
        <time>2019-11-17T11:11:03Z</time>
      </trkpt>
      <trkpt lat="45.13581" lon="5.88853">
        <ele>1580.2110595703</ele>
        <time>2019-11-17T11:11:08Z</time>
      </trkpt>
      <trkpt lat="45.13613" lon="5.88853">
        <ele>1576.8110351562</ele>
        <time>2019-11-17T11:11:13Z</time>
      </trkpt>
      <trkpt lat="45.13641" lon="5.88832">
        <ele>1568.5109863281</ele>
        <time>2019-11-17T11:11:19Z</time>
      </trkpt>
      <trkpt lat="45.13679" lon="5.88824">
        <ele>1561.3110351562</ele>
        <time>2019-11-17T11:11:25Z</time>
      </trkpt>
      <trkpt lat="45.13698" lon="5.88818">
        <ele>1554.2110595703</ele>
        <time>2019-11-17T11:11:30Z</time>
      </trkpt>
      <trkpt lat="45.13722" lon="5.88826">
        <ele>1547.0109863281</ele>
        <time>2019-11-17T11:11:36Z</time>
      </trkpt>
      <trkpt lat="45.1374" lon="5.88836">
        <ele>1543.3120117188</ele>
        <time>2019-11-17T11:11:41Z</time>
      </trkpt>
      <trkpt lat="45.13754" lon="5.88855">
        <ele>1538.2120361328</ele>
        <time>2019-11-17T11:11:46Z</time>
      </trkpt>
      <trkpt lat="45.1377" lon="5.88855">
        <ele>1532.5119628906</ele>
        <time>2019-11-17T11:11:51Z</time>
      </trkpt>
      <trkpt lat="45.13792" lon="5.88853">
        <ele>1522.3120117188</ele>
        <time>2019-11-17T11:11:57Z</time>
      </trkpt>
      <trkpt lat="45.13818" lon="5.88857">
        <ele>1516.8120117188</ele>
        <time>2019-11-17T11:12:02Z</time>
      </trkpt>
      <trkpt lat="45.13846" lon="5.88852">
        <ele>1510.5119628906</ele>
        <time>2019-11-17T11:12:07Z</time>
      </trkpt>
      <trkpt lat="45.13883" lon="5.88848">
        <ele>1501.2120361328</ele>
        <time>2019-11-17T11:12:13Z</time>
      </trkpt>
      <trkpt lat="45.13911" lon="5.88823">
        <ele>1494.4119873047</ele>
        <time>2019-11-17T11:12:19Z</time>
      </trkpt>
      <trkpt lat="45.13943" lon="5.88809">
        <ele>1488.6120605469</ele>
        <time>2019-11-17T11:12:24Z</time>
      </trkpt>
      <trkpt lat="45.13975" lon="5.88812">
        <ele>1478.5119628906</ele>
        <time>2019-11-17T11:12:30Z</time>
      </trkpt>
      <trkpt lat="45.14015" lon="5.88795">
        <ele>1471.9119873047</ele>
        <time>2019-11-17T11:12:36Z</time>
      </trkpt>
      <trkpt lat="45.14046" lon="5.88802">
        <ele>1464.7120361328</ele>
        <time>2019-11-17T11:12:41Z</time>
      </trkpt>
      <trkpt lat="45.14057" lon="5.88809">
        <ele>1457.1120605469</ele>
        <time>2019-11-17T11:15:05Z</time>
      </trkpt>
      <trkpt lat="45.14069" lon="5.88825">
        <ele>1455.1120605469</ele>
        <time>2019-11-17T11:15:12Z</time>
      </trkpt>
      <trkpt lat="45.14055" lon="5.88845">
        <ele>1455.0119628906</ele>
        <time>2019-11-17T11:15:18Z</time>
      </trkpt>
      <trkpt lat="45.14037" lon="5.88868">
        <ele>1446.9119873047</ele>
        <time>2019-11-17T11:17:15Z</time>
      </trkpt>
      <trkpt lat="45.14046" lon="5.88863">
        <ele>1448.9119873047</ele>
        <time>2019-11-17T11:21:17Z</time>
      </trkpt>
    </trkseg>
  </trk>
</gpx>